PWSweather.com
Personal Weather Stations
Station Observations
KNCDUNN5
Dunn, NC

Dunn, NC

Lat: 35.353324, Lon: -78.558324

Elevation: 226

Station Type: AcuRite Pro Weather Center 5-in-1

Latest ConditionsUpdated 8:31:30 AM EST Friday, Jan 19, 2018
Currently Today's Max Today's Min Today's Average
Temperature 28.9°F-1.7°C 29.1°F-1.6°C 22.3°F-5.4°C 25.9°F-3.4°C
Dew Point 24.7°F-4.1°C 24.9°F-3.9°C 20.0°F-6.7°C 22.5°F-5.3°C
Winds Calm Calm 6.8 mph W10.9 kmh W - 1.0 mph 1.6 kmh
Wind Gusts -- 6.8 mph10.9 kmh - -
Humidity 84% 91% 84% 87%
Pressure 30.23 in1023.7 mb 30.25 in1024.4 mb 30.19 in1022.4 mb -
Hour Temp Dew Point Humidity Winds Wind Gusts Pressure Precip Precip Rate Daily Precip Total
08:31 AM 28.9°F-1.7°C 24.7°F-4.1°C 84% Calm Calm -- 30.23 in1023.7 mb 0.00 in0.0 mm 0.00 in0.0 mm 0.00 in0.0 mm
08:30 AM 28.8°F-1.8°C 24.6°F-4.1°C 84% Calm Calm -- 30.23 in1023.7 mb 0.00 in0.0 mm 0.00 in0.0 mm 0.00 in0.0 mm
08:29 AM 28.6°F-1.9°C 24.4°F-4.2°C 84% Calm Calm -- 30.23 in1023.7 mb 0.00 in0.0 mm 0.00 in0.0 mm 0.00 in0.0 mm
08:28 AM 28.2°F-2.1°C 24.0°F-4.4°C 84% Calm Calm -- 30.23 in1023.7 mb 0.00 in0.0 mm 0.00 in0.0 mm 0.00 in0.0 mm
08:27 AM 28.0°F-2.2°C 23.8°F-4.6°C 84% Calm Calm -- 30.23 in1023.7 mb 0.00 in0.0 mm 0.00 in0.0 mm 0.00 in0.0 mm
08:26 AM 28.0°F-2.2°C 24.1°F-4.4°C 85% Calm Calm 2.7 mph4.3 kmh 30.23 in1023.7 mb 0.00 in0.0 mm 0.00 in0.0 mm 0.00 in0.0 mm
08:25 AM 27.9°F-2.3°C 24.0°F-4.4°C 85% Calm Calm 2.7 mph4.3 kmh 30.23 in1023.7 mb 0.00 in0.0 mm 0.00 in0.0 mm 0.00 in0.0 mm
08:24 AM 27.5°F-2.5°C 23.6°F-4.7°C 85% Calm Calm 2.7 mph4.3 kmh 30.23 in1023.7 mb 0.00 in0.0 mm 0.00 in0.0 mm 0.00 in0.0 mm
08:23 AM 27.1°F-2.7°C 23.2°F-4.9°C 85% Calm Calm 2.7 mph4.3 kmh 30.23 in1023.7 mb 0.00 in0.0 mm 0.00 in0.0 mm 0.00 in0.0 mm
08:22 AM 27.0°F-2.8°C 23.1°F-4.9°C 85% Calm Calm 2.7 mph4.3 kmh 30.23 in1023.7 mb 0.00 in0.0 mm 0.00 in0.0 mm 0.00 in0.0 mm
08:21 AM 27.0°F-2.8°C 23.1°F-4.9°C 85% Calm Calm 2.7 mph4.3 kmh 30.23 in1023.7 mb 0.00 in0.0 mm 0.00 in0.0 mm 0.00 in0.0 mm
08:20 AM 27.0°F-2.8°C 23.1°F-4.9°C 85% Calm Calm 2.7 mph4.3 kmh 30.23 in1023.7 mb 0.00 in0.0 mm 0.00 in0.0 mm 0.00 in0.0 mm
08:19 AM 27.0°F-2.8°C 23.4°F-4.8°C 86% Calm Calm 2.7 mph4.3 kmh 30.23 in1023.7 mb 0.00 in0.0 mm 0.00 in0.0 mm 0.00 in0.0 mm
08:18 AM 26.8°F-2.9°C 23.2°F-4.9°C 86% Calm Calm 2.7 mph4.3 kmh 30.23 in1023.7 mb 0.00 in0.0 mm 0.00 in0.0 mm 0.00 in0.0 mm
08:17 AM 26.6°F-3.0°C 23.0°F-5.0°C 86% Calm Calm 2.7 mph4.3 kmh 30.23 in1023.7 mb 0.00 in0.0 mm 0.00 in0.0 mm 0.00 in0.0 mm
08:16 AM 26.4°F-3.1°C 22.8°F-5.1°C 86% 1.1 mph WNW1.8 kmh WNW 2.7 mph4.3 kmh 30.23 in1023.7 mb 0.00 in0.0 mm 0.00 in0.0 mm 0.00 in0.0 mm
08:15 AM 26.2°F-3.2°C 22.6°F-5.2°C 86% 1.7 mph WNW2.7 kmh WNW 2.7 mph4.3 kmh 30.23 in1023.7 mb 0.00 in0.0 mm 0.00 in0.0 mm 0.00 in0.0 mm
08:14 AM 26.1°F-3.3°C 22.8°F-5.1°C 87% 2.7 mph W4.3 kmh W 2.7 mph4.3 kmh 30.23 in1023.7 mb 0.00 in0.0 mm 0.00 in0.0 mm 0.00 in0.0 mm
08:13 AM 25.9°F-3.4°C 22.6°F-5.2°C 87% Calm Calm 2.7 mph4.3 kmh 30.23 in1023.7 mb 0.00 in0.0 mm 0.00 in0.0 mm 0.00 in0.0 mm
08:12 AM 25.7°F-3.5°C 22.4°F-5.3°C 87% 1.7 mph WNW2.7 kmh WNW 2.7 mph4.3 kmh 30.23 in1023.7 mb 0.00 in0.0 mm 0.00 in0.0 mm 0.00 in0.0 mm
08:11 AM 25.3°F-3.7°C 22.0°F-5.6°C 87% 1.7 mph W2.7 kmh W 2.7 mph4.3 kmh 30.23 in1023.7 mb 0.00 in0.0 mm 0.00 in0.0 mm 0.00 in0.0 mm
08:10 AM 25.2°F-3.8°C 21.9°F-5.6°C 87% 1.7 mph WNW2.7 kmh WNW 3.2 mph5.1 kmh 30.23 in1023.7 mb 0.00 in0.0 mm 0.00 in0.0 mm 0.00 in0.0 mm
08:09 AM 24.8°F-4.0°C 22.0°F-5.6°C 89% 2.2 mph WNW3.5 kmh WNW 3.7 mph6.0 kmh 30.23 in1023.7 mb 0.00 in0.0 mm 0.00 in0.0 mm 0.00 in0.0 mm
08:08 AM 24.8°F-4.0°C 22.0°F-5.6°C 89% 2.2 mph W3.5 kmh W 3.7 mph6.0 kmh 30.23 in1023.7 mb 0.00 in0.0 mm 0.00 in0.0 mm 0.00 in0.0 mm
08:07 AM 24.6°F-4.1°C 21.8°F-5.7°C 89% 2.2 mph WNW3.5 kmh WNW 3.7 mph6.0 kmh 30.23 in1023.7 mb 0.00 in0.0 mm 0.00 in0.0 mm 0.00 in0.0 mm
08:06 AM 24.6°F-4.1°C 21.8°F-5.7°C 89% 2.2 mph WNW3.5 kmh WNW 3.7 mph6.0 kmh 30.23 in1023.7 mb 0.00 in0.0 mm 0.00 in0.0 mm 0.00 in0.0 mm
08:05 AM 24.6°F-4.1°C 21.8°F-5.7°C 89% 1.7 mph WNW2.7 kmh WNW 3.7 mph6.0 kmh 30.23 in1023.7 mb 0.00 in0.0 mm 0.00 in0.0 mm 0.00 in0.0 mm
08:04 AM 24.6°F-4.1°C 21.8°F-5.7°C 89% 1.7 mph WNW2.7 kmh WNW 3.7 mph6.0 kmh 30.23 in1023.7 mb 0.00 in0.0 mm 0.00 in0.0 mm 0.00 in0.0 mm
08:03 AM 24.6°F-4.1°C 21.8°F-5.7°C 89% 2.2 mph WNW3.5 kmh WNW 3.7 mph6.0 kmh 30.23 in1023.7 mb 0.00 in0.0 mm 0.00 in0.0 mm 0.00 in0.0 mm
08:02 AM 24.6°F-4.1°C 21.8°F-5.7°C 89% 1.7 mph WNW2.7 kmh WNW 3.7 mph6.0 kmh 30.23 in1023.7 mb 0.00 in0.0 mm 0.00 in0.0 mm 0.00 in0.0 mm
08:01 AM 24.6°F-4.1°C 21.8°F-5.7°C 89% 2.7 mph WNW4.3 kmh WNW 3.7 mph6.0 kmh 30.23 in1023.7 mb 0.00 in0.0 mm 0.00 in0.0 mm 0.00 in0.0 mm
08:00 AM 24.6°F-4.1°C 21.8°F-5.7°C 89% 3.2 mph WNW5.1 kmh WNW 3.7 mph6.0 kmh 30.23 in1023.7 mb 0.00 in0.0 mm 0.00 in0.0 mm 0.00 in0.0 mm
07:59 AM 24.4°F-4.2°C 21.6°F-5.8°C 89% 3.2 mph WNW5.1 kmh WNW 3.7 mph6.0 kmh 30.23 in1023.7 mb 0.00 in0.0 mm 0.00 in0.0 mm 0.00 in0.0 mm
07:58 AM 24.3°F-4.3°C 21.5°F-5.8°C 89% 2.7 mph WNW4.3 kmh WNW 3.7 mph6.0 kmh 30.23 in1023.7 mb 0.00 in0.0 mm 0.00 in0.0 mm 0.00 in0.0 mm
07:57 AM 24.3°F-4.3°C 21.5°F-5.8°C 89% 2.2 mph WNW3.5 kmh WNW 2.7 mph4.3 kmh 30.23 in1023.7 mb 0.00 in0.0 mm 0.00 in0.0 mm 0.00 in0.0 mm
07:56 AM 24.1°F-4.4°C 21.3°F-5.9°C 89% 2.7 mph W4.3 kmh W 2.7 mph4.3 kmh 30.23 in1023.7 mb 0.00 in0.0 mm 0.00 in0.0 mm 0.00 in0.0 mm
07:55 AM 24.1°F-4.4°C 21.3°F-5.9°C 89% Calm Calm -- 30.23 in1023.7 mb 0.00 in0.0 mm 0.00 in0.0 mm 0.00 in0.0 mm
07:54 AM 24.1°F-4.4°C 21.3°F-5.9°C 89% Calm Calm 1.7 mph2.7 kmh 30.23 in1023.7 mb 0.00 in0.0 mm 0.00 in0.0 mm 0.00 in0.0 mm
07:53 AM 24.1°F-4.4°C 21.3°F-5.9°C 89% Calm Calm 2.7 mph4.3 kmh 30.23 in1023.7 mb 0.00 in0.0 mm 0.00 in0.0 mm 0.00 in0.0 mm
07:52 AM 24.1°F-4.4°C 21.3°F-5.9°C 89% Calm Calm 2.7 mph4.3 kmh 30.23 in1023.7 mb 0.00 in0.0 mm 0.00 in0.0 mm 0.00 in0.0 mm
07:51 AM 24.3°F-4.3°C 21.5°F-5.8°C 89% Calm Calm 2.7 mph4.3 kmh 30.23 in1023.7 mb 0.00 in0.0 mm 0.00 in0.0 mm 0.00 in0.0 mm
07:50 AM 24.4°F-4.2°C 21.6°F-5.8°C 89% Calm Calm 2.7 mph4.3 kmh 30.23 in1023.7 mb 0.00 in0.0 mm 0.00 in0.0 mm 0.00 in0.0 mm
07:49 AM 24.4°F-4.2°C 21.6°F-5.8°C 89% Calm Calm 2.7 mph4.3 kmh 30.23 in1023.7 mb 0.00 in0.0 mm 0.00 in0.0 mm 0.00 in0.0 mm
07:48 AM 24.8°F-4.0°C 22.0°F-5.6°C 89% Calm Calm 2.7 mph4.3 kmh 30.22 in1023.4 mb 0.00 in0.0 mm 0.00 in0.0 mm 0.00 in0.0 mm
07:47 AM 24.8°F-4.0°C 22.0°F-5.6°C 89% Calm Calm 2.7 mph4.3 kmh 30.22 in1023.4 mb 0.00 in0.0 mm 0.00 in0.0 mm 0.00 in0.0 mm
07:46 AM 24.6°F-4.1°C 21.8°F-5.7°C 89% Calm Calm 2.7 mph4.3 kmh 30.22 in1023.4 mb 0.00 in0.0 mm 0.00 in0.0 mm 0.00 in0.0 mm
07:45 AM 24.6°F-4.1°C 21.8°F-5.7°C 89% Calm Calm 2.7 mph4.3 kmh 30.22 in1023.4 mb 0.00 in0.0 mm 0.00 in0.0 mm 0.00 in0.0 mm
07:44 AM 24.4°F-4.2°C 21.6°F-5.8°C 89% Calm Calm 3.2 mph5.1 kmh 30.22 in1023.4 mb 0.00 in0.0 mm 0.00 in0.0 mm 0.00 in0.0 mm
07:43 AM 24.4°F-4.2°C 21.6°F-5.8°C 89% 1.1 mph WNW1.8 kmh WNW 3.2 mph5.1 kmh 30.22 in1023.4 mb 0.00 in0.0 mm 0.00 in0.0 mm 0.00 in0.0 mm
07:42 AM 24.6°F-4.1°C 21.8°F-5.7°C 89% 1.1 mph W1.8 kmh W 3.2 mph5.1 kmh 30.22 in1023.4 mb 0.00 in0.0 mm 0.00 in0.0 mm 0.00 in0.0 mm
07:41 AM 24.4°F-4.2°C 21.6°F-5.8°C 89% Calm Calm 3.2 mph5.1 kmh 30.22 in1023.4 mb 0.00 in0.0 mm 0.00 in0.0 mm 0.00 in0.0 mm
07:40 AM 24.3°F-4.3°C 21.5°F-5.8°C 89% 1.1 mph SW1.8 kmh SW 3.2 mph5.1 kmh 30.22 in1023.4 mb 0.00 in0.0 mm 0.00 in0.0 mm 0.00 in0.0 mm
07:39 AM 24.3°F-4.3°C 21.5°F-5.8°C 89% 1.7 mph W2.7 kmh W 3.2 mph5.1 kmh 30.22 in1023.4 mb 0.00 in0.0 mm 0.00 in0.0 mm 0.00 in0.0 mm
07:38 AM 24.3°F-4.3°C 21.5°F-5.8°C 89% Calm Calm 3.2 mph5.1 kmh 30.22 in1023.4 mb 0.00 in0.0 mm 0.00 in0.0 mm 0.00 in0.0 mm
07:37 AM 24.3°F-4.3°C 21.5°F-5.8°C 89% Calm Calm 3.2 mph5.1 kmh 30.22 in1023.4 mb 0.00 in0.0 mm 0.00 in0.0 mm 0.00 in0.0 mm
07:36 AM 24.1°F-4.4°C 21.6°F-5.8°C 90% Calm Calm 3.2 mph5.1 kmh 30.22 in1023.4 mb 0.00 in0.0 mm 0.00 in0.0 mm 0.00 in0.0 mm
07:35 AM 24.1°F-4.4°C 21.6°F-5.8°C 90% 1.7 mph WSW2.7 kmh WSW 3.2 mph5.1 kmh 30.22 in1023.4 mb 0.00 in0.0 mm 0.00 in0.0 mm 0.00 in0.0 mm
07:34 AM 23.9°F-4.5°C 21.4°F-5.9°C 90% 1.1 mph SSW1.8 kmh SSW 2.7 mph4.3 kmh 30.22 in1023.4 mb 0.00 in0.0 mm 0.00 in0.0 mm 0.00 in0.0 mm
07:33 AM 23.7°F-4.6°C 21.2°F-6.0°C 90% Calm Calm 2.7 mph4.3 kmh 30.22 in1023.4 mb 0.00 in0.0 mm 0.00 in0.0 mm 0.00 in0.0 mm
07:32 AM 23.7°F-4.6°C 21.2°F-6.0°C 90% Calm Calm 2.7 mph4.3 kmh 30.22 in1023.4 mb 0.00 in0.0 mm 0.00 in0.0 mm 0.00 in0.0 mm
07:31 AM 23.5°F-4.7°C 21.0°F-6.1°C 90% Calm Calm 2.7 mph4.3 kmh 30.22 in1023.4 mb 0.00 in0.0 mm 0.00 in0.0 mm 0.00 in0.0 mm
07:30 AM 23.5°F-4.7°C 21.0°F-6.1°C 90% Calm Calm 2.7 mph4.3 kmh 30.22 in1023.4 mb 0.00 in0.0 mm 0.00 in0.0 mm 0.00 in0.0 mm
07:29 AM 23.5°F-4.7°C 21.0°F-6.1°C 90% 1.7 mph S2.7 kmh S 2.7 mph4.3 kmh 30.22 in1023.4 mb 0.00 in0.0 mm 0.00 in0.0 mm 0.00 in0.0 mm
07:28 AM 23.5°F-4.7°C 21.0°F-6.1°C 90% Calm Calm 2.7 mph4.3 kmh 30.22 in1023.4 mb 0.00 in0.0 mm 0.00 in0.0 mm 0.00 in0.0 mm
07:27 AM 23.5°F-4.7°C 21.3°F-5.9°C 91% 1.1 mph SW1.8 kmh SW 2.7 mph4.3 kmh 30.22 in1023.4 mb 0.00 in0.0 mm 0.00 in0.0 mm 0.00 in0.0 mm
07:26 AM 23.4°F-4.8°C 21.2°F-6.0°C 91% 1.1 mph SW1.8 kmh SW 1.1 mph1.8 kmh 30.22 in1023.4 mb 0.00 in0.0 mm 0.00 in0.0 mm 0.00 in0.0 mm
07:25 AM 23.4°F-4.8°C 21.2°F-6.0°C 91% Calm Calm -- 30.22 in1023.4 mb 0.00 in0.0 mm 0.00 in0.0 mm 0.00 in0.0 mm
07:24 AM 23.2°F-4.9°C 21.0°F-6.1°C 91% Calm Calm -- 30.21 in1023.0 mb 0.00 in0.0 mm 0.00 in0.0 mm 0.00 in0.0 mm
07:23 AM 23.2°F-4.9°C 21.0°F-6.1°C 91% Calm Calm -- 30.21 in1023.0 mb 0.00 in0.0 mm 0.00 in0.0 mm 0.00 in0.0 mm
07:22 AM 23.2°F-4.9°C 21.0°F-6.1°C 91% Calm Calm -- 30.21 in1023.0 mb 0.00 in0.0 mm 0.00 in0.0 mm 0.00 in0.0 mm
07:21 AM 23.2°F-4.9°C 21.0°F-6.1°C 91% Calm Calm -- 30.21 in1023.0 mb 0.00 in0.0 mm 0.00 in0.0 mm 0.00 in0.0 mm
07:20 AM 23.0°F-5.0°C 20.8°F-6.2°C 91% Calm Calm -- 30.21 in1023.0 mb 0.00 in0.0 mm 0.00 in0.0 mm 0.00 in0.0 mm
07:19 AM 23.0°F-5.0°C 20.8°F-6.2°C 91% Calm Calm -- 30.21 in1023.0 mb 0.00 in0.0 mm 0.00 in0.0 mm 0.00 in0.0 mm
07:18 AM 23.0°F-5.0°C 20.8°F-6.2°C 91% Calm Calm -- 30.21 in1023.0 mb 0.00 in0.0 mm 0.00 in0.0 mm 0.00 in0.0 mm
07:17 AM 23.0°F-5.0°C 20.8°F-6.2°C 91% Calm Calm -- 30.21 in1023.0 mb 0.00 in0.0 mm 0.00 in0.0 mm 0.00 in0.0 mm
07:16 AM 23.0°F-5.0°C 20.8°F-6.2°C 91% Calm Calm 1.1 mph1.8 kmh 30.21 in1023.0 mb 0.00 in0.0 mm 0.00 in0.0 mm 0.00 in0.0 mm
07:15 AM 23.0°F-5.0°C 20.8°F-6.2°C 91% Calm Calm 1.1 mph1.8 kmh 30.21 in1023.0 mb 0.00 in0.0 mm 0.00 in0.0 mm 0.00 in0.0 mm
07:14 AM 22.8°F-5.1°C 20.6°F-6.3°C 91% Calm Calm 1.1 mph1.8 kmh 30.21 in1023.0 mb 0.00 in0.0 mm 0.00 in0.0 mm 0.00 in0.0 mm
07:13 AM 22.6°F-5.2°C 20.4°F-6.4°C 91% Calm Calm 1.1 mph1.8 kmh 30.21 in1023.0 mb 0.00 in0.0 mm 0.00 in0.0 mm 0.00 in0.0 mm
07:12 AM 22.6°F-5.2°C 20.4°F-6.4°C 91% Calm Calm 1.1 mph1.8 kmh 30.21 in1023.0 mb 0.00 in0.0 mm 0.00 in0.0 mm 0.00 in0.0 mm
07:11 AM 22.5°F-5.3°C 20.3°F-6.5°C 91% Calm Calm 1.1 mph1.8 kmh 30.21 in1023.0 mb 0.00 in0.0 mm 0.00 in0.0 mm 0.00 in0.0 mm
07:10 AM 22.5°F-5.3°C 20.3°F-6.5°C 91% Calm Calm 1.1 mph1.8 kmh 30.21 in1023.0 mb 0.00 in0.0 mm 0.00 in0.0 mm 0.00 in0.0 mm
07:09 AM 22.3°F-5.4°C 20.1°F-6.6°C 91% Calm Calm 1.1 mph1.8 kmh 30.21 in1023.0 mb 0.00 in0.0 mm 0.00 in0.0 mm 0.00 in0.0 mm
07:08 AM 22.3°F-5.4°C 20.1°F-6.6°C 91% Calm Calm 1.1 mph1.8 kmh 30.21 in1023.0 mb 0.00 in0.0 mm 0.00 in0.0 mm 0.00 in0.0 mm
07:07 AM 22.3°F-5.4°C 20.1°F-6.6°C 91% Calm Calm 1.1 mph1.8 kmh 30.21 in1023.0 mb 0.00 in0.0 mm 0.00 in0.0 mm 0.00 in0.0 mm
07:06 AM 22.5°F-5.3°C 20.3°F-6.5°C 91% Calm Calm -- 30.21 in1023.0 mb 0.00 in0.0 mm 0.00 in0.0 mm 0.00 in0.0 mm
07:05 AM 22.8°F-5.1°C 20.6°F-6.3°C 91% Calm Calm -- 30.21 in1023.0 mb 0.00 in0.0 mm 0.00 in0.0 mm 0.00 in0.0 mm
07:04 AM 22.8°F-5.1°C 20.6°F-6.3°C 91% Calm Calm -- 30.21 in1023.0 mb 0.00 in0.0 mm 0.00 in0.0 mm 0.00 in0.0 mm
07:03 AM 22.8°F-5.1°C 20.6°F-6.3°C 91% Calm Calm -- 30.21 in1023.0 mb 0.00 in0.0 mm 0.00 in0.0 mm 0.00 in0.0 mm
07:02 AM 22.8°F-5.1°C 20.6°F-6.3°C 91% Calm Calm -- 30.21 in1023.0 mb 0.00 in0.0 mm 0.00 in0.0 mm 0.00 in0.0 mm
07:01 AM 22.6°F-5.2°C 20.1°F-6.6°C 90% Calm Calm -- 30.21 in1023.0 mb 0.00 in0.0 mm 0.00 in0.0 mm 0.00 in0.0 mm
07:00 AM 22.6°F-5.2°C 20.1°F-6.6°C 90% Calm Calm -- 30.21 in1023.0 mb 0.00 in0.0 mm 0.00 in0.0 mm 0.00 in0.0 mm
06:59 AM 22.6°F-5.2°C 20.1°F-6.6°C 90% Calm Calm -- 30.21 in1023.0 mb 0.00 in0.0 mm 0.00 in0.0 mm 0.00 in0.0 mm
06:58 AM 22.6°F-5.2°C 20.1°F-6.6°C 90% Calm Calm -- 30.21 in1023.0 mb 0.00 in0.0 mm 0.00 in0.0 mm 0.00 in0.0 mm
06:57 AM 22.8°F-5.1°C 20.3°F-6.5°C 90% Calm Calm -- 30.21 in1023.0 mb 0.00 in0.0 mm 0.00 in0.0 mm 0.00 in0.0 mm
06:56 AM 22.8°F-5.1°C 20.3°F-6.5°C 90% Calm Calm -- 30.21 in1023.0 mb 0.00 in0.0 mm 0.00 in0.0 mm 0.00 in0.0 mm
06:55 AM 22.8°F-5.1°C 20.3°F-6.5°C 90% Calm Calm -- 30.21 in1023.0 mb 0.00 in0.0 mm 0.00 in0.0 mm 0.00 in0.0 mm
06:54 AM 22.6°F-5.2°C 20.1°F-6.6°C 90% Calm Calm -- 30.21 in1023.0 mb 0.00 in0.0 mm 0.00 in0.0 mm 0.00 in0.0 mm
06:53 AM 22.5°F-5.3°C 20.0°F-6.7°C 90% Calm Calm -- 30.21 in1023.0 mb 0.00 in0.0 mm 0.00 in0.0 mm 0.00 in0.0 mm
06:52 AM 22.5°F-5.3°C 20.0°F-6.7°C 90% Calm Calm -- 30.21 in1023.0 mb 0.00 in0.0 mm 0.00 in0.0 mm 0.00 in0.0 mm
06:51 AM 22.5°F-5.3°C 20.0°F-6.7°C 90% Calm Calm -- 30.21 in1023.0 mb 0.00 in0.0 mm 0.00 in0.0 mm 0.00 in0.0 mm
06:50 AM 22.5°F-5.3°C 20.0°F-6.7°C 90% Calm Calm -- 30.21 in1023.0 mb 0.00 in0.0 mm 0.00 in0.0 mm 0.00 in0.0 mm
06:49 AM 22.6°F-5.2°C 20.1°F-6.6°C 90% Calm Calm -- 30.21 in1023.0 mb 0.00 in0.0 mm 0.00 in0.0 mm 0.00 in0.0 mm
06:48 AM 22.8°F-5.1°C 20.3°F-6.5°C 90% Calm Calm -- 30.21 in1023.0 mb 0.00 in0.0 mm 0.00 in0.0 mm 0.00 in0.0 mm
06:47 AM 23.0°F-5.0°C 20.5°F-6.4°C 90% Calm Calm -- 30.21 in1023.0 mb 0.00 in0.0 mm 0.00 in0.0 mm 0.00 in0.0 mm
06:46 AM 23.0°F-5.0°C 20.5°F-6.4°C 90% Calm Calm -- 30.21 in1023.0 mb 0.00 in0.0 mm 0.00 in0.0 mm 0.00 in0.0 mm
06:45 AM 23.0°F-5.0°C 20.5°F-6.4°C 90% Calm Calm 1.1 mph1.8 kmh 30.21 in1023.0 mb 0.00 in0.0 mm 0.00 in0.0 mm 0.00 in0.0 mm
06:44 AM 23.0°F-5.0°C 20.5°F-6.4°C 90% Calm Calm 1.1 mph1.8 kmh 30.21 in1023.0 mb 0.00 in0.0 mm 0.00 in0.0 mm 0.00 in0.0 mm
06:43 AM 22.8°F-5.1°C 20.3°F-6.5°C 90% Calm Calm 1.1 mph1.8 kmh 30.21 in1023.0 mb 0.00 in0.0 mm 0.00 in0.0 mm 0.00 in0.0 mm
06:42 AM 22.8°F-5.1°C 20.3°F-6.5°C 90% Calm Calm 1.1 mph1.8 kmh 30.21 in1023.0 mb 0.00 in0.0 mm 0.00 in0.0 mm 0.00 in0.0 mm
06:41 AM 22.8°F-5.1°C 20.3°F-6.5°C 90% Calm Calm 1.1 mph1.8 kmh 30.21 in1023.0 mb 0.00 in0.0 mm 0.00 in0.0 mm 0.00 in0.0 mm
06:40 AM 22.8°F-5.1°C 20.1°F-6.6°C 89% Calm Calm 1.1 mph1.8 kmh 30.21 in1023.0 mb 0.00 in0.0 mm 0.00 in0.0 mm 0.00 in0.0 mm
06:39 AM 22.8°F-5.1°C 20.1°F-6.6°C 89% Calm Calm 1.1 mph1.8 kmh 30.21 in1023.0 mb 0.00 in0.0 mm 0.00 in0.0 mm 0.00 in0.0 mm
06:38 AM 23.0°F-5.0°C 20.3°F-6.5°C 89% Calm Calm 1.1 mph1.8 kmh 30.21 in1023.0 mb 0.00 in0.0 mm 0.00 in0.0 mm 0.00 in0.0 mm
06:37 AM 23.0°F-5.0°C 20.3°F-6.5°C 89% Calm Calm 1.1 mph1.8 kmh 30.20 in1022.7 mb 0.00 in0.0 mm 0.00 in0.0 mm 0.00 in0.0 mm
06:36 AM 23.0°F-5.0°C 20.3°F-6.5°C 89% Calm Calm 1.1 mph1.8 kmh 30.20 in1022.7 mb 0.00 in0.0 mm 0.00 in0.0 mm 0.00 in0.0 mm
06:35 AM 23.0°F-5.0°C 20.3°F-6.5°C 89% Calm Calm -- 30.20 in1022.7 mb 0.00 in0.0 mm 0.00 in0.0 mm 0.00 in0.0 mm
06:34 AM 23.0°F-5.0°C 20.3°F-6.5°C 89% Calm Calm -- 30.20 in1022.7 mb 0.00 in0.0 mm 0.00 in0.0 mm 0.00 in0.0 mm
06:33 AM 23.0°F-5.0°C 20.3°F-6.5°C 89% Calm Calm -- 30.20 in1022.7 mb 0.00 in0.0 mm 0.00 in0.0 mm 0.00 in0.0 mm
06:32 AM 23.2°F-4.9°C 20.4°F-6.4°C 89% Calm Calm -- 30.20 in1022.7 mb 0.00 in0.0 mm 0.00 in0.0 mm 0.00 in0.0 mm
06:31 AM 23.2°F-4.9°C 20.4°F-6.4°C 89% Calm Calm -- 30.20 in1022.7 mb 0.00 in0.0 mm 0.00 in0.0 mm 0.00 in0.0 mm
06:30 AM 23.2°F-4.9°C 20.4°F-6.4°C 89% Calm Calm -- 30.20 in1022.7 mb 0.00 in0.0 mm 0.00 in0.0 mm 0.00 in0.0 mm
06:29 AM 23.2°F-4.9°C 20.4°F-6.4°C 89% Calm Calm -- 30.20 in1022.7 mb 0.00 in0.0 mm 0.00 in0.0 mm 0.00 in0.0 mm
06:28 AM 23.2°F-4.9°C 20.4°F-6.4°C 89% Calm Calm -- 30.20 in1022.7 mb 0.00 in0.0 mm 0.00 in0.0 mm 0.00 in0.0 mm
06:27 AM 23.2°F-4.9°C 20.4°F-6.4°C 89% Calm Calm -- 30.20 in1022.7 mb 0.00 in0.0 mm 0.00 in0.0 mm 0.00 in0.0 mm
06:26 AM 23.4°F-4.8°C 20.6°F-6.3°C 89% Calm Calm -- 30.20 in1022.7 mb 0.00 in0.0 mm 0.00 in0.0 mm 0.00 in0.0 mm
06:25 AM 23.2°F-4.9°C 20.2°F-6.6°C 88% Calm Calm -- 30.20 in1022.7 mb 0.00 in0.0 mm 0.00 in0.0 mm 0.00 in0.0 mm
06:24 AM 23.2°F-4.9°C 20.2°F-6.6°C 88% Calm Calm -- 30.20 in1022.7 mb 0.00 in0.0 mm 0.00 in0.0 mm 0.00 in0.0 mm
06:23 AM 23.2°F-4.9°C 20.2°F-6.6°C 88% Calm Calm -- 30.20 in1022.7 mb 0.00 in0.0 mm 0.00 in0.0 mm 0.00 in0.0 mm
06:22 AM 23.2°F-4.9°C 20.2°F-6.6°C 88% Calm Calm -- 30.20 in1022.7 mb 0.00 in0.0 mm 0.00 in0.0 mm 0.00 in0.0 mm
06:21 AM 23.2°F-4.9°C 20.2°F-6.6°C 88% Calm Calm -- 30.20 in1022.7 mb 0.00 in0.0 mm 0.00 in0.0 mm 0.00 in0.0 mm
06:20 AM 23.2°F-4.9°C 20.2°F-6.6°C 88% Calm Calm -- 30.20 in1022.7 mb 0.00 in0.0 mm 0.00 in0.0 mm 0.00 in0.0 mm
06:19 AM 23.4°F-4.8°C 20.4°F-6.4°C 88% Calm Calm -- 30.20 in1022.7 mb 0.00 in0.0 mm 0.00 in0.0 mm 0.00 in0.0 mm
06:18 AM 23.4°F-4.8°C 20.4°F-6.4°C 88% Calm Calm -- 30.20 in1022.7 mb 0.00 in0.0 mm 0.00 in0.0 mm 0.00 in0.0 mm
06:17 AM 23.4°F-4.8°C 20.4°F-6.4°C 88% Calm Calm -- 30.20 in1022.7 mb 0.00 in0.0 mm 0.00 in0.0 mm 0.00 in0.0 mm
06:16 AM 23.5°F-4.7°C 20.5°F-6.4°C 88% Calm Calm -- 30.20 in1022.7 mb 0.00 in0.0 mm 0.00 in0.0 mm 0.00 in0.0 mm
06:15 AM 23.7°F-4.6°C 20.7°F-6.3°C 88% Calm Calm 2.2 mph3.5 kmh 30.20 in1022.7 mb 0.00 in0.0 mm 0.00 in0.0 mm 0.00 in0.0 mm
06:14 AM 23.7°F-4.6°C 20.7°F-6.3°C 88% Calm Calm 2.2 mph3.5 kmh 30.20 in1022.7 mb 0.00 in0.0 mm 0.00 in0.0 mm 0.00 in0.0 mm
06:13 AM 23.7°F-4.6°C 20.7°F-6.3°C 88% Calm Calm 2.2 mph3.5 kmh 30.20 in1022.7 mb 0.00 in0.0 mm 0.00 in0.0 mm 0.00 in0.0 mm
06:12 AM 23.7°F-4.6°C 20.7°F-6.3°C 88% Calm Calm 2.2 mph3.5 kmh 30.20 in1022.7 mb 0.00 in0.0 mm 0.00 in0.0 mm 0.00 in0.0 mm
06:11 AM 23.9°F-4.5°C 20.9°F-6.2°C 88% Calm Calm 2.2 mph3.5 kmh 30.20 in1022.7 mb 0.00 in0.0 mm 0.00 in0.0 mm 0.00 in0.0 mm
06:10 AM 23.9°F-4.5°C 20.9°F-6.2°C 88% Calm Calm 2.2 mph3.5 kmh 30.20 in1022.7 mb 0.00 in0.0 mm 0.00 in0.0 mm 0.00 in0.0 mm
06:09 AM 24.1°F-4.4°C 21.1°F-6.1°C 88% Calm Calm 2.2 mph3.5 kmh 30.20 in1022.7 mb 0.00 in0.0 mm 0.00 in0.0 mm 0.00 in0.0 mm
06:08 AM 24.1°F-4.4°C 21.1°F-6.1°C 88% Calm Calm 2.2 mph3.5 kmh 30.20 in1022.7 mb 0.00 in0.0 mm 0.00 in0.0 mm 0.00 in0.0 mm
06:07 AM 24.1°F-4.4°C 21.1°F-6.1°C 88% Calm Calm 2.7 mph4.3 kmh 30.20 in1022.7 mb 0.00 in0.0 mm 0.00 in0.0 mm 0.00 in0.0 mm
06:06 AM 24.3°F-4.3°C 21.3°F-5.9°C 88% Calm Calm 2.7 mph4.3 kmh 30.20 in1022.7 mb 0.00 in0.0 mm 0.00 in0.0 mm 0.00 in0.0 mm
06:05 AM 24.3°F-4.3°C 21.3°F-5.9°C 88% 1.7 mph WNW2.7 kmh WNW 2.7 mph4.3 kmh 30.20 in1022.7 mb 0.00 in0.0 mm 0.00 in0.0 mm 0.00 in0.0 mm
06:04 AM 24.3°F-4.3°C 21.3°F-5.9°C 88% 1.7 mph WNW2.7 kmh WNW 2.7 mph4.3 kmh 30.20 in1022.7 mb 0.00 in0.0 mm 0.00 in0.0 mm 0.00 in0.0 mm
06:03 AM 24.3°F-4.3°C 21.3°F-5.9°C 88% 1.7 mph WNW2.7 kmh WNW 2.7 mph4.3 kmh 30.20 in1022.7 mb 0.00 in0.0 mm 0.00 in0.0 mm 0.00 in0.0 mm
06:02 AM 24.3°F-4.3°C 21.3°F-5.9°C 88% Calm Calm 2.7 mph4.3 kmh 30.20 in1022.7 mb 0.00 in0.0 mm 0.00 in0.0 mm 0.00 in0.0 mm
06:01 AM 24.3°F-4.3°C 21.3°F-5.9°C 88% Calm Calm 2.7 mph4.3 kmh 30.20 in1022.7 mb 0.00 in0.0 mm 0.00 in0.0 mm 0.00 in0.0 mm
06:00 AM 24.4°F-4.2°C 21.4°F-5.9°C 88% 1.7 mph W2.7 kmh W 2.7 mph4.3 kmh 30.19 in1022.4 mb 0.00 in0.0 mm 0.00 in0.0 mm 0.00 in0.0 mm
05:59 AM 24.4°F-4.2°C 21.4°F-5.9°C 88% 2.2 mph WNW3.5 kmh WNW 2.7 mph4.3 kmh 30.19 in1022.4 mb 0.00 in0.0 mm 0.00 in0.0 mm 0.00 in0.0 mm
05:58 AM 24.4°F-4.2°C 21.4°F-5.9°C 88% 2.2 mph WNW3.5 kmh WNW 2.7 mph4.3 kmh 30.19 in1022.4 mb 0.00 in0.0 mm 0.00 in0.0 mm 0.00 in0.0 mm
05:57 AM 24.4°F-4.2°C 21.4°F-5.9°C 88% 1.7 mph WNW2.7 kmh WNW 2.7 mph4.3 kmh 30.19 in1022.4 mb 0.00 in0.0 mm 0.00 in0.0 mm 0.00 in0.0 mm
05:56 AM 24.4°F-4.2°C 21.4°F-5.9°C 88% 2.7 mph W4.3 kmh W 2.7 mph4.3 kmh 30.19 in1022.4 mb 0.00 in0.0 mm 0.00 in0.0 mm 0.00 in0.0 mm
05:55 AM 24.4°F-4.2°C 21.4°F-5.9°C 88% 2.2 mph WNW3.5 kmh WNW 2.2 mph3.5 kmh 30.19 in1022.4 mb 0.00 in0.0 mm 0.00 in0.0 mm 0.00 in0.0 mm
05:54 AM 24.4°F-4.2°C 21.4°F-5.9°C 88% Calm Calm 1.1 mph1.8 kmh 30.19 in1022.4 mb 0.00 in0.0 mm 0.00 in0.0 mm 0.00 in0.0 mm
05:53 AM 24.4°F-4.2°C 21.4°F-5.9°C 88% Calm Calm 1.1 mph1.8 kmh 30.19 in1022.4 mb 0.00 in0.0 mm 0.00 in0.0 mm 0.00 in0.0 mm
05:52 AM 24.6°F-4.1°C 21.6°F-5.8°C 88% Calm Calm 1.1 mph1.8 kmh 30.19 in1022.4 mb 0.00 in0.0 mm 0.00 in0.0 mm 0.00 in0.0 mm
05:51 AM 24.6°F-4.1°C 21.6°F-5.8°C 88% Calm Calm 1.1 mph1.8 kmh 30.19 in1022.4 mb 0.00 in0.0 mm 0.00 in0.0 mm 0.00 in0.0 mm
05:50 AM 24.8°F-4.0°C 21.8°F-5.7°C 88% Calm Calm 1.1 mph1.8 kmh 30.19 in1022.4 mb 0.00 in0.0 mm 0.00 in0.0 mm 0.00 in0.0 mm
05:49 AM 24.8°F-4.0°C 21.8°F-5.7°C 88% 1.1 mph NW1.8 kmh NW 1.1 mph1.8 kmh 30.19 in1022.4 mb 0.00 in0.0 mm 0.00 in0.0 mm 0.00 in0.0 mm
05:48 AM 24.8°F-4.0°C 21.8°F-5.7°C 88% 1.1 mph W1.8 kmh W 1.1 mph1.8 kmh 30.19 in1022.4 mb 0.00 in0.0 mm 0.00 in0.0 mm 0.00 in0.0 mm
05:47 AM 24.8°F-4.0°C 21.5°F-5.8°C 87% Calm Calm 1.1 mph1.8 kmh 30.19 in1022.4 mb 0.00 in0.0 mm 0.00 in0.0 mm 0.00 in0.0 mm
05:46 AM 24.8°F-4.0°C 21.5°F-5.8°C 87% Calm Calm 1.1 mph1.8 kmh 30.19 in1022.4 mb 0.00 in0.0 mm 0.00 in0.0 mm 0.00 in0.0 mm
05:45 AM 24.8°F-4.0°C 21.5°F-5.8°C 87% Calm Calm -- 30.19 in1022.4 mb 0.00 in0.0 mm 0.00 in0.0 mm 0.00 in0.0 mm
05:44 AM 24.8°F-4.0°C 21.5°F-5.8°C 87% Calm Calm -- 30.19 in1022.4 mb 0.00 in0.0 mm 0.00 in0.0 mm 0.00 in0.0 mm
05:43 AM 24.8°F-4.0°C 21.5°F-5.8°C 87% Calm Calm -- 30.19 in1022.4 mb 0.00 in0.0 mm 0.00 in0.0 mm 0.00 in0.0 mm
05:42 AM 24.8°F-4.0°C 21.5°F-5.8°C 87% Calm Calm -- 30.19 in1022.4 mb 0.00 in0.0 mm 0.00 in0.0 mm 0.00 in0.0 mm
05:41 AM 24.8°F-4.0°C 21.5°F-5.8°C 87% Calm Calm -- 30.19 in1022.4 mb 0.00 in0.0 mm 0.00 in0.0 mm 0.00 in0.0 mm
05:40 AM 25.0°F-3.9°C 21.7°F-5.7°C 87% Calm Calm -- 30.19 in1022.4 mb 0.00 in0.0 mm 0.00 in0.0 mm 0.00 in0.0 mm
05:39 AM 25.2°F-3.8°C 21.9°F-5.6°C 87% Calm Calm 1.7 mph2.7 kmh 30.19 in1022.4 mb 0.00 in0.0 mm 0.00 in0.0 mm 0.00 in0.0 mm
05:38 AM 25.2°F-3.8°C 21.9°F-5.6°C 87% Calm Calm 2.2 mph3.5 kmh 30.19 in1022.4 mb 0.00 in0.0 mm 0.00 in0.0 mm 0.00 in0.0 mm
05:37 AM 25.2°F-3.8°C 21.9°F-5.6°C 87% Calm Calm 2.2 mph3.5 kmh 30.19 in1022.4 mb 0.00 in0.0 mm 0.00 in0.0 mm 0.00 in0.0 mm
05:36 AM 25.3°F-3.7°C 22.0°F-5.6°C 87% Calm Calm 2.2 mph3.5 kmh 30.19 in1022.4 mb 0.00 in0.0 mm 0.00 in0.0 mm 0.00 in0.0 mm
05:35 AM 25.3°F-3.7°C 22.0°F-5.6°C 87% Calm Calm 2.2 mph3.5 kmh 30.19 in1022.4 mb 0.00 in0.0 mm 0.00 in0.0 mm 0.00 in0.0 mm
05:34 AM 25.3°F-3.7°C 22.0°F-5.6°C 87% Calm Calm 2.2 mph3.5 kmh 30.19 in1022.4 mb 0.00 in0.0 mm 0.00 in0.0 mm 0.00 in0.0 mm
05:33 AM 25.3°F-3.7°C 22.0°F-5.6°C 87% Calm Calm 2.2 mph3.5 kmh 30.19 in1022.4 mb 0.00 in0.0 mm 0.00 in0.0 mm 0.00 in0.0 mm
05:32 AM 25.3°F-3.7°C 22.0°F-5.6°C 87% Calm Calm 2.2 mph3.5 kmh 30.19 in1022.4 mb 0.00 in0.0 mm 0.00 in0.0 mm 0.00 in0.0 mm
05:31 AM 25.3°F-3.7°C 22.0°F-5.6°C 87% Calm Calm 2.2 mph3.5 kmh 30.19 in1022.4 mb 0.00 in0.0 mm 0.00 in0.0 mm 0.00 in0.0 mm
05:30 AM 25.3°F-3.7°C 22.0°F-5.6°C 87% Calm Calm 2.2 mph3.5 kmh 30.19 in1022.4 mb 0.00 in0.0 mm 0.00 in0.0 mm 0.00 in0.0 mm
05:29 AM 25.2°F-3.8°C 21.9°F-5.6°C 87% 1.7 mph SW2.7 kmh SW 2.7 mph4.3 kmh 30.19 in1022.4 mb 0.00 in0.0 mm 0.00 in0.0 mm 0.00 in0.0 mm
05:28 AM 25.2°F-3.8°C 21.9°F-5.6°C 87% Calm Calm 2.7 mph4.3 kmh 30.19 in1022.4 mb 0.00 in0.0 mm 0.00 in0.0 mm 0.00 in0.0 mm
05:27 AM 25.0°F-3.9°C 21.7°F-5.7°C 87% Calm Calm 2.7 mph4.3 kmh 30.19 in1022.4 mb 0.00 in0.0 mm 0.00 in0.0 mm 0.00 in0.0 mm
05:26 AM 25.0°F-3.9°C 21.7°F-5.7°C 87% Calm Calm 2.7 mph4.3 kmh 30.19 in1022.4 mb 0.00 in0.0 mm 0.00 in0.0 mm 0.00 in0.0 mm
05:25 AM 25.0°F-3.9°C 21.7°F-5.7°C 87% Calm Calm 2.7 mph4.3 kmh 30.19 in1022.4 mb 0.00 in0.0 mm 0.00 in0.0 mm 0.00 in0.0 mm
05:24 AM 25.0°F-3.9°C 21.7°F-5.7°C 87% 2.2 mph W3.5 kmh W 2.7 mph4.3 kmh 30.19 in1022.4 mb 0.00 in0.0 mm 0.00 in0.0 mm 0.00 in0.0 mm
05:23 AM 25.0°F-3.9°C 21.7°F-5.7°C 87% 1.1 mph NNW1.8 kmh NNW 2.7 mph4.3 kmh 30.19 in1022.4 mb 0.00 in0.0 mm 0.00 in0.0 mm 0.00 in0.0 mm
05:22 AM 25.0°F-3.9°C 21.7°F-5.7°C 87% Calm Calm 3.2 mph5.1 kmh 30.19 in1022.4 mb 0.00 in0.0 mm 0.00 in0.0 mm 0.00 in0.0 mm
05:21 AM 25.0°F-3.9°C 21.7°F-5.7°C 87% Calm Calm 3.2 mph5.1 kmh 30.19 in1022.4 mb 0.00 in0.0 mm 0.00 in0.0 mm 0.00 in0.0 mm
05:20 AM 25.0°F-3.9°C 21.7°F-5.7°C 87% Calm Calm 3.2 mph5.1 kmh 30.19 in1022.4 mb 0.00 in0.0 mm 0.00 in0.0 mm 0.00 in0.0 mm
05:19 AM 25.2°F-3.8°C 21.9°F-5.6°C 87% 2.7 mph W4.3 kmh W 3.2 mph5.1 kmh 30.19 in1022.4 mb 0.00 in0.0 mm 0.00 in0.0 mm 0.00 in0.0 mm
05:18 AM 25.2°F-3.8°C 21.9°F-5.6°C 87% 2.2 mph WNW3.5 kmh WNW 3.2 mph5.1 kmh 30.19 in1022.4 mb 0.00 in0.0 mm 0.00 in0.0 mm 0.00 in0.0 mm
05:17 AM 25.2°F-3.8°C 21.9°F-5.6°C 87% 2.7 mph W4.3 kmh W 3.2 mph5.1 kmh 30.19 in1022.4 mb 0.00 in0.0 mm 0.00 in0.0 mm 0.00 in0.0 mm
05:16 AM 25.3°F-3.7°C 22.0°F-5.6°C 87% 2.2 mph W3.5 kmh W 3.2 mph5.1 kmh 30.19 in1022.4 mb 0.00 in0.0 mm 0.00 in0.0 mm 0.00 in0.0 mm
05:15 AM 25.3°F-3.7°C 22.0°F-5.6°C 87% 2.2 mph W3.5 kmh W 3.2 mph5.1 kmh 30.19 in1022.4 mb 0.00 in0.0 mm 0.00 in0.0 mm 0.00 in0.0 mm
05:14 AM 25.3°F-3.7°C 22.0°F-5.6°C 87% 1.7 mph WNW2.7 kmh WNW 3.2 mph5.1 kmh 30.19 in1022.4 mb 0.00 in0.0 mm 0.00 in0.0 mm 0.00 in0.0 mm
05:13 AM 25.3°F-3.7°C 22.0°F-5.6°C 87% 2.2 mph W3.5 kmh W 3.2 mph5.1 kmh 30.19 in1022.4 mb 0.00 in0.0 mm 0.00 in0.0 mm 0.00 in0.0 mm
05:12 AM 25.2°F-3.8°C 21.9°F-5.6°C 87% 2.7 mph W4.3 kmh W 3.2 mph5.1 kmh 30.19 in1022.4 mb 0.00 in0.0 mm 0.00 in0.0 mm 0.00 in0.0 mm
05:11 AM 25.2°F-3.8°C 21.9°F-5.6°C 87% 2.7 mph WNW4.3 kmh WNW 3.2 mph5.1 kmh 30.19 in1022.4 mb 0.00 in0.0 mm 0.00 in0.0 mm 0.00 in0.0 mm
05:10 AM 25.0°F-3.9°C 21.7°F-5.7°C 87% 3.2 mph W5.1 kmh W 3.2 mph5.1 kmh 30.19 in1022.4 mb 0.00 in0.0 mm 0.00 in0.0 mm 0.00 in0.0 mm
05:09 AM 25.0°F-3.9°C 21.7°F-5.7°C 87% 2.7 mph W4.3 kmh W 3.2 mph5.1 kmh 30.19 in1022.4 mb 0.00 in0.0 mm 0.00 in0.0 mm 0.00 in0.0 mm
05:08 AM 25.0°F-3.9°C 21.7°F-5.7°C 87% 2.2 mph W3.5 kmh W 3.2 mph5.1 kmh 30.19 in1022.4 mb 0.00 in0.0 mm 0.00 in0.0 mm 0.00 in0.0 mm
05:07 AM 25.0°F-3.9°C 21.7°F-5.7°C 87% 2.2 mph W3.5 kmh W 3.2 mph5.1 kmh 30.19 in1022.4 mb 0.00 in0.0 mm 0.00 in0.0 mm 0.00 in0.0 mm
05:06 AM 25.0°F-3.9°C 21.7°F-5.7°C 87% Calm Calm 3.7 mph6.0 kmh 30.19 in1022.4 mb 0.00 in0.0 mm 0.00 in0.0 mm 0.00 in0.0 mm
05:05 AM 25.0°F-3.9°C 21.7°F-5.7°C 87% 1.1 mph W1.8 kmh W 4.2 mph6.8 kmh 30.19 in1022.4 mb 0.00 in0.0 mm 0.00 in0.0 mm 0.00 in0.0 mm
05:04 AM 25.0°F-3.9°C 21.7°F-5.7°C 87% Calm Calm 4.2 mph6.8 kmh 30.19 in1022.4 mb 0.00 in0.0 mm 0.00 in0.0 mm 0.00 in0.0 mm
05:03 AM 25.0°F-3.9°C 21.7°F-5.7°C 87% 1.1 mph W1.8 kmh W 4.2 mph6.8 kmh 30.19 in1022.4 mb 0.00 in0.0 mm 0.00 in0.0 mm 0.00 in0.0 mm
05:02 AM 25.0°F-3.9°C 21.7°F-5.7°C 87% Calm Calm 4.2 mph6.8 kmh 30.19 in1022.4 mb 0.00 in0.0 mm 0.00 in0.0 mm 0.00 in0.0 mm
05:01 AM 25.0°F-3.9°C 21.7°F-5.7°C 87% Calm Calm 4.2 mph6.8 kmh 30.19 in1022.4 mb 0.00 in0.0 mm 0.00 in0.0 mm 0.00 in0.0 mm
05:00 AM 25.2°F-3.8°C 21.9°F-5.6°C 87% 1.1 mph W1.8 kmh W 4.2 mph6.8 kmh 30.20 in1022.7 mb 0.00 in0.0 mm 0.00 in0.0 mm 0.00 in0.0 mm
04:59 AM 25.2°F-3.8°C 21.9°F-5.6°C 87% 1.1 mph W1.8 kmh W 4.2 mph6.8 kmh 30.20 in1022.7 mb 0.00 in0.0 mm 0.00 in0.0 mm 0.00 in0.0 mm
04:58 AM 25.2°F-3.8°C 21.9°F-5.6°C 87% Calm Calm 4.2 mph6.8 kmh 30.20 in1022.7 mb 0.00 in0.0 mm 0.00 in0.0 mm 0.00 in0.0 mm
04:57 AM 25.2°F-3.8°C 21.9°F-5.6°C 87% 1.1 mph WNW1.8 kmh WNW 4.2 mph6.8 kmh 30.20 in1022.7 mb 0.00 in0.0 mm 0.00 in0.0 mm 0.00 in0.0 mm
04:56 AM 25.2°F-3.8°C 21.9°F-5.6°C 87% 3.7 mph WSW6.0 kmh WSW 4.2 mph6.8 kmh 30.20 in1022.7 mb 0.00 in0.0 mm 0.00 in0.0 mm 0.00 in0.0 mm
04:55 AM 25.0°F-3.9°C 21.7°F-5.7°C 87% Calm Calm 2.7 mph4.3 kmh 30.20 in1022.7 mb 0.00 in0.0 mm 0.00 in0.0 mm 0.00 in0.0 mm
04:54 AM 25.0°F-3.9°C 21.7°F-5.7°C 87% 1.1 mph WNW1.8 kmh WNW 2.7 mph4.3 kmh 30.20 in1022.7 mb 0.00 in0.0 mm 0.00 in0.0 mm 0.00 in0.0 mm
04:53 AM 25.0°F-3.9°C 21.7°F-5.7°C 87% 1.7 mph WNW2.7 kmh WNW 2.7 mph4.3 kmh 30.20 in1022.7 mb 0.00 in0.0 mm 0.00 in0.0 mm 0.00 in0.0 mm
04:52 AM 25.0°F-3.9°C 21.7°F-5.7°C 87% 1.7 mph NW2.7 kmh NW 2.7 mph4.3 kmh 30.20 in1022.7 mb 0.00 in0.0 mm 0.00 in0.0 mm 0.00 in0.0 mm
04:51 AM 25.0°F-3.9°C 21.7°F-5.7°C 87% 1.1 mph WNW1.8 kmh WNW 1.1 mph1.8 kmh 30.20 in1022.7 mb 0.00 in0.0 mm 0.00 in0.0 mm 0.00 in0.0 mm
04:50 AM 25.0°F-3.9°C 21.7°F-5.7°C 87% Calm Calm -- 30.20 in1022.7 mb 0.00 in0.0 mm 0.00 in0.0 mm 0.00 in0.0 mm
04:49 AM 25.0°F-3.9°C 21.7°F-5.7°C 87% Calm Calm -- 30.20 in1022.7 mb 0.00 in0.0 mm 0.00 in0.0 mm 0.00 in0.0 mm
04:48 AM 25.0°F-3.9°C 21.7°F-5.7°C 87% Calm Calm -- 30.20 in1022.7 mb 0.00 in0.0 mm 0.00 in0.0 mm 0.00 in0.0 mm
04:47 AM 25.0°F-3.9°C 21.7°F-5.7°C 87% Calm Calm -- 30.20 in1022.7 mb 0.00 in0.0 mm 0.00 in0.0 mm 0.00 in0.0 mm
04:46 AM 25.0°F-3.9°C 21.7°F-5.7°C 87% Calm Calm -- 30.20 in1022.7 mb 0.00 in0.0 mm 0.00 in0.0 mm 0.00 in0.0 mm
04:45 AM 25.0°F-3.9°C 21.7°F-5.7°C 87% Calm Calm -- 30.20 in1022.7 mb 0.00 in0.0 mm 0.00 in0.0 mm 0.00 in0.0 mm
04:44 AM 25.2°F-3.8°C 21.9°F-5.6°C 87% Calm Calm -- 30.20 in1022.7 mb 0.00 in0.0 mm 0.00 in0.0 mm 0.00 in0.0 mm
04:43 AM 25.2°F-3.8°C 21.9°F-5.6°C 87% Calm Calm -- 30.20 in1022.7 mb 0.00 in0.0 mm 0.00 in0.0 mm 0.00 in0.0 mm
04:42 AM 25.2°F-3.8°C 21.6°F-5.8°C 86% Calm Calm 2.2 mph3.5 kmh 30.20 in1022.7 mb 0.00 in0.0 mm 0.00 in0.0 mm 0.00 in0.0 mm
04:41 AM 25.2°F-3.8°C 21.6°F-5.8°C 86% Calm Calm 2.2 mph3.5 kmh 30.20 in1022.7 mb 0.00 in0.0 mm 0.00 in0.0 mm 0.00 in0.0 mm
04:40 AM 25.2°F-3.8°C 21.6°F-5.8°C 86% Calm Calm 2.7 mph4.3 kmh 30.20 in1022.7 mb 0.00 in0.0 mm 0.00 in0.0 mm 0.00 in0.0 mm
04:39 AM 25.3°F-3.7°C 21.7°F-5.7°C 86% Calm Calm 2.7 mph4.3 kmh 30.20 in1022.7 mb 0.00 in0.0 mm 0.00 in0.0 mm 0.00 in0.0 mm
04:38 AM 25.3°F-3.7°C 21.7°F-5.7°C 86% Calm Calm 2.7 mph4.3 kmh 30.20 in1022.7 mb 0.00 in0.0 mm 0.00 in0.0 mm 0.00 in0.0 mm
04:37 AM 25.5°F-3.6°C 21.9°F-5.6°C 86% Calm Calm 2.7 mph4.3 kmh 30.19 in1022.4 mb 0.00 in0.0 mm 0.00 in0.0 mm 0.00 in0.0 mm
04:36 AM 25.5°F-3.6°C 21.9°F-5.6°C 86% Calm Calm 2.7 mph4.3 kmh 30.19 in1022.4 mb 0.00 in0.0 mm 0.00 in0.0 mm 0.00 in0.0 mm
04:35 AM 25.5°F-3.6°C 21.9°F-5.6°C 86% Calm Calm 2.7 mph4.3 kmh 30.19 in1022.4 mb 0.00 in0.0 mm 0.00 in0.0 mm 0.00 in0.0 mm
04:34 AM 25.7°F-3.5°C 22.1°F-5.5°C 86% Calm Calm 2.7 mph4.3 kmh 30.19 in1022.4 mb 0.00 in0.0 mm 0.00 in0.0 mm 0.00 in0.0 mm
04:33 AM 25.7°F-3.5°C 22.1°F-5.5°C 86% Calm Calm 2.7 mph4.3 kmh 30.19 in1022.4 mb 0.00 in0.0 mm 0.00 in0.0 mm 0.00 in0.0 mm
04:32 AM 25.7°F-3.5°C 22.1°F-5.5°C 86% 2.2 mph W3.5 kmh W 2.7 mph4.3 kmh 30.19 in1022.4 mb 0.00 in0.0 mm 0.00 in0.0 mm 0.00 in0.0 mm
04:31 AM 25.7°F-3.5°C 22.1°F-5.5°C 86% 2.2 mph WNW3.5 kmh WNW 3.2 mph5.1 kmh 30.19 in1022.4 mb 0.00 in0.0 mm 0.00 in0.0 mm 0.00 in0.0 mm
04:30 AM 25.7°F-3.5°C 22.1°F-5.5°C 86% 2.2 mph W3.5 kmh W 3.2 mph5.1 kmh 30.19 in1022.4 mb 0.00 in0.0 mm 0.00 in0.0 mm 0.00 in0.0 mm
04:29 AM 25.5°F-3.6°C 21.9°F-5.6°C 86% 2.7 mph W4.3 kmh W 3.2 mph5.1 kmh 30.19 in1022.4 mb 0.00 in0.0 mm 0.00 in0.0 mm 0.00 in0.0 mm
04:28 AM 25.5°F-3.6°C 21.9°F-5.6°C 86% 2.2 mph WNW3.5 kmh WNW 3.2 mph5.1 kmh 30.19 in1022.4 mb 0.00 in0.0 mm 0.00 in0.0 mm 0.00 in0.0 mm
04:27 AM 25.5°F-3.6°C 21.9°F-5.6°C 86% Calm Calm 3.2 mph5.1 kmh 30.19 in1022.4 mb 0.00 in0.0 mm 0.00 in0.0 mm 0.00 in0.0 mm
04:26 AM 25.7°F-3.5°C 22.1°F-5.5°C 86% Calm Calm 3.2 mph5.1 kmh 30.19 in1022.4 mb 0.00 in0.0 mm 0.00 in0.0 mm 0.00 in0.0 mm
04:25 AM 25.7°F-3.5°C 22.1°F-5.5°C 86% 1.7 mph NNW2.7 kmh NNW 3.2 mph5.1 kmh 30.19 in1022.4 mb 0.00 in0.0 mm 0.00 in0.0 mm 0.00 in0.0 mm
04:24 AM 25.7°F-3.5°C 22.1°F-5.5°C 86% 2.7 mph WNW4.3 kmh WNW 3.2 mph5.1 kmh 30.20 in1022.7 mb 0.00 in0.0 mm 0.00 in0.0 mm 0.00 in0.0 mm
04:23 AM 25.7°F-3.5°C 22.1°F-5.5°C 86% Calm Calm 3.2 mph5.1 kmh 30.20 in1022.7 mb 0.00 in0.0 mm 0.00 in0.0 mm 0.00 in0.0 mm
04:22 AM 25.7°F-3.5°C 22.1°F-5.5°C 86% 2.7 mph WNW4.3 kmh WNW 3.2 mph5.1 kmh 30.20 in1022.7 mb 0.00 in0.0 mm 0.00 in0.0 mm 0.00 in0.0 mm
04:21 AM 25.7°F-3.5°C 22.1°F-5.5°C 86% Calm Calm 1.1 mph1.8 kmh 30.20 in1022.7 mb 0.00 in0.0 mm 0.00 in0.0 mm 0.00 in0.0 mm
04:20 AM 25.7°F-3.5°C 22.1°F-5.5°C 86% Calm Calm 2.2 mph3.5 kmh 30.20 in1022.7 mb 0.00 in0.0 mm 0.00 in0.0 mm 0.00 in0.0 mm
04:19 AM 25.9°F-3.4°C 22.3°F-5.4°C 86% Calm Calm 3.2 mph5.1 kmh 30.20 in1022.7 mb 0.00 in0.0 mm 0.00 in0.0 mm 0.00 in0.0 mm
04:18 AM 25.9°F-3.4°C 22.3°F-5.4°C 86% Calm Calm 3.2 mph5.1 kmh 30.20 in1022.7 mb 0.00 in0.0 mm 0.00 in0.0 mm 0.00 in0.0 mm
04:17 AM 25.9°F-3.4°C 22.3°F-5.4°C 86% Calm Calm 3.2 mph5.1 kmh 30.20 in1022.7 mb 0.00 in0.0 mm 0.00 in0.0 mm 0.00 in0.0 mm
04:16 AM 25.9°F-3.4°C 22.3°F-5.4°C 86% Calm Calm 3.2 mph5.1 kmh 30.20 in1022.7 mb 0.00 in0.0 mm 0.00 in0.0 mm 0.00 in0.0 mm
04:15 AM 26.1°F-3.3°C 22.5°F-5.3°C 86% Calm Calm 3.2 mph5.1 kmh 30.20 in1022.7 mb 0.00 in0.0 mm 0.00 in0.0 mm 0.00 in0.0 mm
04:14 AM 26.1°F-3.3°C 22.5°F-5.3°C 86% Calm Calm 3.2 mph5.1 kmh 30.20 in1022.7 mb 0.00 in0.0 mm 0.00 in0.0 mm 0.00 in0.0 mm
04:13 AM 26.1°F-3.3°C 22.5°F-5.3°C 86% Calm Calm 3.2 mph5.1 kmh 30.20 in1022.7 mb 0.00 in0.0 mm 0.00 in0.0 mm 0.00 in0.0 mm
04:12 AM 26.2°F-3.2°C 22.6°F-5.2°C 86% Calm Calm 3.2 mph5.1 kmh 30.20 in1022.7 mb 0.00 in0.0 mm 0.00 in0.0 mm 0.00 in0.0 mm
04:11 AM 26.2°F-3.2°C 22.6°F-5.2°C 86% Calm Calm 3.2 mph5.1 kmh 30.20 in1022.7 mb 0.00 in0.0 mm 0.00 in0.0 mm 0.00 in0.0 mm
04:10 AM 26.4°F-3.1°C 22.8°F-5.1°C 86% 2.2 mph W3.5 kmh W 3.2 mph5.1 kmh 30.20 in1022.7 mb 0.00 in0.0 mm 0.00 in0.0 mm 0.00 in0.0 mm
04:09 AM 26.4°F-3.1°C 22.5°F-5.3°C 85% 3.2 mph W5.1 kmh W 3.2 mph5.1 kmh 30.20 in1022.7 mb 0.00 in0.0 mm 0.00 in0.0 mm 0.00 in0.0 mm
04:08 AM 26.4°F-3.1°C 22.5°F-5.3°C 85% 1.7 mph W2.7 kmh W 2.7 mph4.3 kmh 30.20 in1022.7 mb 0.00 in0.0 mm 0.00 in0.0 mm 0.00 in0.0 mm
04:07 AM 26.4°F-3.1°C 22.5°F-5.3°C 85% 2.2 mph W3.5 kmh W 2.7 mph4.3 kmh 30.20 in1022.7 mb 0.00 in0.0 mm 0.00 in0.0 mm 0.00 in0.0 mm
04:06 AM 26.4°F-3.1°C 22.5°F-5.3°C 85% 1.1 mph W1.8 kmh W 3.2 mph5.1 kmh 30.20 in1022.7 mb 0.00 in0.0 mm 0.00 in0.0 mm 0.00 in0.0 mm
04:05 AM 26.6°F-3.0°C 22.7°F-5.2°C 85% 2.7 mph W4.3 kmh W 3.7 mph6.0 kmh 30.20 in1022.7 mb 0.00 in0.0 mm 0.00 in0.0 mm 0.00 in0.0 mm
04:04 AM 26.6°F-3.0°C 22.7°F-5.2°C 85% Calm Calm 3.7 mph6.0 kmh 30.20 in1022.7 mb 0.00 in0.0 mm 0.00 in0.0 mm 0.00 in0.0 mm
04:03 AM 26.6°F-3.0°C 22.7°F-5.2°C 85% Calm Calm 3.7 mph6.0 kmh 30.20 in1022.7 mb 0.00 in0.0 mm 0.00 in0.0 mm 0.00 in0.0 mm
04:02 AM 26.8°F-2.9°C 22.9°F-5.1°C 85% 1.1 mph WNW1.8 kmh WNW 3.7 mph6.0 kmh 30.20 in1022.7 mb 0.00 in0.0 mm 0.00 in0.0 mm 0.00 in0.0 mm
04:01 AM 26.8°F-2.9°C 22.9°F-5.1°C 85% Calm Calm 3.7 mph6.0 kmh 30.20 in1022.7 mb 0.00 in0.0 mm 0.00 in0.0 mm 0.00 in0.0 mm
04:00 AM 26.8°F-2.9°C 22.9°F-5.1°C 85% Calm Calm 3.7 mph6.0 kmh 30.20 in1022.7 mb 0.00 in0.0 mm 0.00 in0.0 mm 0.00 in0.0 mm
03:59 AM 26.8°F-2.9°C 22.9°F-5.1°C 85% 1.1 mph WNW1.8 kmh WNW 4.2 mph6.8 kmh 30.20 in1022.7 mb 0.00 in0.0 mm 0.00 in0.0 mm 0.00 in0.0 mm
03:58 AM 26.8°F-2.9°C 22.9°F-5.1°C 85% Calm Calm 4.2 mph6.8 kmh 30.20 in1022.7 mb 0.00 in0.0 mm 0.00 in0.0 mm 0.00 in0.0 mm
03:57 AM 26.8°F-2.9°C 22.9°F-5.1°C 85% 2.7 mph W4.3 kmh W 4.2 mph6.8 kmh 30.20 in1022.7 mb 0.00 in0.0 mm 0.00 in0.0 mm 0.00 in0.0 mm
03:56 AM 26.8°F-2.9°C 22.9°F-5.1°C 85% 3.2 mph W5.1 kmh W 4.2 mph6.8 kmh 30.20 in1022.7 mb 0.00 in0.0 mm 0.00 in0.0 mm 0.00 in0.0 mm
03:55 AM 26.8°F-2.9°C 22.9°F-5.1°C 85% 1.1 mph WNW1.8 kmh WNW 4.2 mph6.8 kmh 30.20 in1022.7 mb 0.00 in0.0 mm 0.00 in0.0 mm 0.00 in0.0 mm
03:54 AM 26.8°F-2.9°C 22.9°F-5.1°C 85% 2.7 mph NW4.3 kmh NW 4.2 mph6.8 kmh 30.20 in1022.7 mb 0.00 in0.0 mm 0.00 in0.0 mm 0.00 in0.0 mm
03:53 AM 26.6°F-3.0°C 22.7°F-5.2°C 85% 1.1 mph WNW1.8 kmh WNW 4.2 mph6.8 kmh 30.20 in1022.7 mb 0.00 in0.0 mm 0.00 in0.0 mm 0.00 in0.0 mm
03:52 AM 26.6°F-3.0°C 22.7°F-5.2°C 85% 3.2 mph WNW5.1 kmh WNW 4.2 mph6.8 kmh 30.20 in1022.7 mb 0.00 in0.0 mm 0.00 in0.0 mm 0.00 in0.0 mm
03:51 AM 26.6°F-3.0°C 22.7°F-5.2°C 85% 2.2 mph WNW3.5 kmh WNW 4.2 mph6.8 kmh 30.20 in1022.7 mb 0.00 in0.0 mm 0.00 in0.0 mm 0.00 in0.0 mm
03:50 AM 26.6°F-3.0°C 22.7°F-5.2°C 85% 2.2 mph SSW3.5 kmh SSW 4.2 mph6.8 kmh 30.20 in1022.7 mb 0.00 in0.0 mm 0.00 in0.0 mm 0.00 in0.0 mm
03:49 AM 26.6°F-3.0°C 22.7°F-5.2°C 85% 1.7 mph WNW2.7 kmh WNW 4.2 mph6.8 kmh 30.20 in1022.7 mb 0.00 in0.0 mm 0.00 in0.0 mm 0.00 in0.0 mm
03:48 AM 26.6°F-3.0°C 22.7°F-5.2°C 85% 4.2 mph WNW6.8 kmh WNW 4.2 mph6.8 kmh 30.21 in1023.0 mb 0.00 in0.0 mm 0.00 in0.0 mm 0.00 in0.0 mm
03:47 AM 26.6°F-3.0°C 22.7°F-5.2°C 85% 1.1 mph WNW1.8 kmh WNW 3.7 mph6.0 kmh 30.21 in1023.0 mb 0.00 in0.0 mm 0.00 in0.0 mm 0.00 in0.0 mm
03:46 AM 26.6°F-3.0°C 22.7°F-5.2°C 85% 1.7 mph W2.7 kmh W 3.7 mph6.0 kmh 30.21 in1023.0 mb 0.00 in0.0 mm 0.00 in0.0 mm 0.00 in0.0 mm
03:45 AM 26.8°F-2.9°C 22.9°F-5.1°C 85% 1.7 mph W2.7 kmh W 3.7 mph6.0 kmh 30.21 in1023.0 mb 0.00 in0.0 mm 0.00 in0.0 mm 0.00 in0.0 mm
03:44 AM 26.8°F-2.9°C 22.9°F-5.1°C 85% 1.7 mph W2.7 kmh W 3.7 mph6.0 kmh 30.21 in1023.0 mb 0.00 in0.0 mm 0.00 in0.0 mm 0.00 in0.0 mm
03:43 AM 27.0°F-2.8°C 23.1°F-4.9°C 85% 3.2 mph W5.1 kmh W 3.7 mph6.0 kmh 30.21 in1023.0 mb 0.00 in0.0 mm 0.00 in0.0 mm 0.00 in0.0 mm
03:42 AM 27.0°F-2.8°C 23.1°F-4.9°C 85% 2.7 mph W4.3 kmh W 3.7 mph6.0 kmh 30.21 in1023.0 mb 0.00 in0.0 mm 0.00 in0.0 mm 0.00 in0.0 mm
03:41 AM 27.0°F-2.8°C 23.1°F-4.9°C 85% 3.2 mph WNW5.1 kmh WNW 3.2 mph5.1 kmh 30.21 in1023.0 mb 0.00 in0.0 mm 0.00 in0.0 mm 0.00 in0.0 mm
03:40 AM 27.0°F-2.8°C 23.1°F-4.9°C 85% 3.2 mph W5.1 kmh W 3.2 mph5.1 kmh 30.21 in1023.0 mb 0.00 in0.0 mm 0.00 in0.0 mm 0.00 in0.0 mm
03:39 AM 27.1°F-2.7°C 23.2°F-4.9°C 85% 3.2 mph W5.1 kmh W 3.2 mph5.1 kmh 30.21 in1023.0 mb 0.00 in0.0 mm 0.00 in0.0 mm 0.00 in0.0 mm
03:38 AM 27.1°F-2.7°C 23.2°F-4.9°C 85% 2.2 mph WNW3.5 kmh WNW 2.7 mph4.3 kmh 30.21 in1023.0 mb 0.00 in0.0 mm 0.00 in0.0 mm 0.00 in0.0 mm
03:37 AM 27.1°F-2.7°C 23.2°F-4.9°C 85% 1.1 mph W1.8 kmh W 2.7 mph4.3 kmh 30.21 in1023.0 mb 0.00 in0.0 mm 0.00 in0.0 mm 0.00 in0.0 mm
03:36 AM 27.1°F-2.7°C 23.2°F-4.9°C 85% 2.7 mph W4.3 kmh W 2.7 mph4.3 kmh 30.21 in1023.0 mb 0.00 in0.0 mm 0.00 in0.0 mm 0.00 in0.0 mm
03:35 AM 27.3°F-2.6°C 23.4°F-4.8°C 85% 2.2 mph W3.5 kmh W 3.2 mph5.1 kmh 30.21 in1023.0 mb 0.00 in0.0 mm 0.00 in0.0 mm 0.00 in0.0 mm
03:34 AM 27.3°F-2.6°C 23.4°F-4.8°C 85% 2.2 mph W3.5 kmh W 3.7 mph6.0 kmh 30.21 in1023.0 mb 0.00 in0.0 mm 0.00 in0.0 mm 0.00 in0.0 mm
03:33 AM 27.3°F-2.6°C 23.4°F-4.8°C 85% 1.1 mph WNW1.8 kmh WNW 3.7 mph6.0 kmh 30.21 in1023.0 mb 0.00 in0.0 mm 0.00 in0.0 mm 0.00 in0.0 mm
03:32 AM 27.3°F-2.6°C 23.4°F-4.8°C 85% 2.2 mph W3.5 kmh W 3.7 mph6.0 kmh 30.21 in1023.0 mb 0.00 in0.0 mm 0.00 in0.0 mm 0.00 in0.0 mm
03:31 AM 27.3°F-2.6°C 23.4°F-4.8°C 85% 2.2 mph WNW3.5 kmh WNW 3.7 mph6.0 kmh 30.21 in1023.0 mb 0.00 in0.0 mm 0.00 in0.0 mm 0.00 in0.0 mm
03:30 AM 27.3°F-2.6°C 23.4°F-4.8°C 85% 2.7 mph WSW4.3 kmh WSW 3.7 mph6.0 kmh 30.21 in1023.0 mb 0.00 in0.0 mm 0.00 in0.0 mm 0.00 in0.0 mm
03:29 AM 27.3°F-2.6°C 23.4°F-4.8°C 85% 2.2 mph W3.5 kmh W 3.7 mph6.0 kmh 30.21 in1023.0 mb 0.00 in0.0 mm 0.00 in0.0 mm 0.00 in0.0 mm
03:28 AM 27.3°F-2.6°C 23.4°F-4.8°C 85% 2.2 mph W3.5 kmh W 3.7 mph6.0 kmh 30.21 in1023.0 mb 0.00 in0.0 mm 0.00 in0.0 mm 0.00 in0.0 mm
03:27 AM 27.3°F-2.6°C 23.4°F-4.8°C 85% 2.2 mph W3.5 kmh W 3.7 mph6.0 kmh 30.21 in1023.0 mb 0.00 in0.0 mm 0.00 in0.0 mm 0.00 in0.0 mm
03:26 AM 27.5°F-2.5°C 23.6°F-4.7°C 85% 1.7 mph W2.7 kmh W 3.7 mph6.0 kmh 30.21 in1023.0 mb 0.00 in0.0 mm 0.00 in0.0 mm 0.00 in0.0 mm
03:25 AM 27.5°F-2.5°C 23.6°F-4.7°C 85% 2.7 mph WNW4.3 kmh WNW 3.7 mph6.0 kmh 30.21 in1023.0 mb 0.00 in0.0 mm 0.00 in0.0 mm 0.00 in0.0 mm
03:24 AM 27.5°F-2.5°C 23.6°F-4.7°C 85% 3.7 mph W6.0 kmh W 3.7 mph6.0 kmh 30.21 in1023.0 mb 0.00 in0.0 mm 0.00 in0.0 mm 0.00 in0.0 mm
03:23 AM 27.5°F-2.5°C 23.6°F-4.7°C 85% 2.7 mph SW4.3 kmh SW 4.2 mph6.8 kmh 30.21 in1023.0 mb 0.00 in0.0 mm 0.00 in0.0 mm 0.00 in0.0 mm
03:22 AM 27.5°F-2.5°C 23.6°F-4.7°C 85% 2.7 mph W4.3 kmh W 4.2 mph6.8 kmh 30.21 in1023.0 mb 0.00 in0.0 mm 0.00 in0.0 mm 0.00 in0.0 mm
03:21 AM 27.5°F-2.5°C 23.6°F-4.7°C 85% 2.7 mph W4.3 kmh W 4.2 mph6.8 kmh 30.21 in1023.0 mb 0.00 in0.0 mm 0.00 in0.0 mm 0.00 in0.0 mm
03:20 AM 27.5°F-2.5°C 23.6°F-4.7°C 85% 2.7 mph W4.3 kmh W 4.2 mph6.8 kmh 30.21 in1023.0 mb 0.00 in0.0 mm 0.00 in0.0 mm 0.00 in0.0 mm
03:19 AM 27.5°F-2.5°C 23.6°F-4.7°C 85% 2.2 mph WNW3.5 kmh WNW 4.2 mph6.8 kmh 30.21 in1023.0 mb 0.00 in0.0 mm 0.00 in0.0 mm 0.00 in0.0 mm
03:18 AM 27.5°F-2.5°C 23.6°F-4.7°C 85% 3.7 mph W6.0 kmh W 4.2 mph6.8 kmh 30.21 in1023.0 mb 0.00 in0.0 mm 0.00 in0.0 mm 0.00 in0.0 mm
03:17 AM 27.5°F-2.5°C 23.6°F-4.7°C 85% 3.2 mph W5.1 kmh W 4.2 mph6.8 kmh 30.21 in1023.0 mb 0.00 in0.0 mm 0.00 in0.0 mm 0.00 in0.0 mm
03:16 AM 27.5°F-2.5°C 23.6°F-4.7°C 85% 1.7 mph NNW2.7 kmh NNW 4.2 mph6.8 kmh 30.21 in1023.0 mb 0.00 in0.0 mm 0.00 in0.0 mm 0.00 in0.0 mm
03:15 AM 27.5°F-2.5°C 23.6°F-4.7°C 85% 2.2 mph W3.5 kmh W 4.2 mph6.8 kmh 30.21 in1023.0 mb 0.00 in0.0 mm 0.00 in0.0 mm 0.00 in0.0 mm
03:14 AM 27.5°F-2.5°C 23.6°F-4.7°C 85% 2.2 mph W3.5 kmh W 4.2 mph6.8 kmh 30.21 in1023.0 mb 0.00 in0.0 mm 0.00 in0.0 mm 0.00 in0.0 mm
03:13 AM 27.5°F-2.5°C 23.6°F-4.7°C 85% Calm Calm 4.2 mph6.8 kmh 30.21 in1023.0 mb 0.00 in0.0 mm 0.00 in0.0 mm 0.00 in0.0 mm
03:12 AM 27.5°F-2.5°C 23.6°F-4.7°C 85% 2.7 mph NW4.3 kmh NW 4.2 mph6.8 kmh 30.21 in1023.0 mb 0.00 in0.0 mm 0.00 in0.0 mm 0.00 in0.0 mm
03:11 AM 27.5°F-2.5°C 23.6°F-4.7°C 85% 2.2 mph WNW3.5 kmh WNW 4.2 mph6.8 kmh 30.21 in1023.0 mb 0.00 in0.0 mm 0.00 in0.0 mm 0.00 in0.0 mm
03:10 AM 27.7°F-2.4°C 23.8°F-4.6°C 85% 2.7 mph WNW4.3 kmh WNW 4.2 mph6.8 kmh 30.21 in1023.0 mb 0.00 in0.0 mm 0.00 in0.0 mm 0.00 in0.0 mm
03:09 AM 27.7°F-2.4°C 23.8°F-4.6°C 85% Calm Calm 4.7 mph7.6 kmh 30.21 in1023.0 mb 0.00 in0.0 mm 0.00 in0.0 mm 0.00 in0.0 mm
03:08 AM 27.7°F-2.4°C 23.8°F-4.6°C 85% 2.2 mph S3.5 kmh S 5.3 mph8.5 kmh 30.21 in1023.0 mb 0.00 in0.0 mm 0.00 in0.0 mm 0.00 in0.0 mm
03:07 AM 27.7°F-2.4°C 23.8°F-4.6°C 85% Calm Calm 5.3 mph8.5 kmh 30.21 in1023.0 mb 0.00 in0.0 mm 0.00 in0.0 mm 0.00 in0.0 mm
03:06 AM 27.7°F-2.4°C 23.8°F-4.6°C 85% 2.2 mph WNW3.5 kmh WNW 5.3 mph8.5 kmh 30.21 in1023.0 mb 0.00 in0.0 mm 0.00 in0.0 mm 0.00 in0.0 mm
03:05 AM 27.7°F-2.4°C 23.8°F-4.6°C 85% 1.7 mph NNW2.7 kmh NNW 5.3 mph8.5 kmh 30.21 in1023.0 mb 0.00 in0.0 mm 0.00 in0.0 mm 0.00 in0.0 mm
03:04 AM 27.7°F-2.4°C 23.8°F-4.6°C 85% 2.2 mph W3.5 kmh W 5.3 mph8.5 kmh 30.21 in1023.0 mb 0.00 in0.0 mm 0.00 in0.0 mm 0.00 in0.0 mm
03:03 AM 27.7°F-2.4°C 23.8°F-4.6°C 85% Calm Calm 5.3 mph8.5 kmh 30.21 in1023.0 mb 0.00 in0.0 mm 0.00 in0.0 mm 0.00 in0.0 mm
03:02 AM 27.7°F-2.4°C 23.8°F-4.6°C 85% 1.7 mph W2.7 kmh W 5.3 mph8.5 kmh 30.21 in1023.0 mb 0.00 in0.0 mm 0.00 in0.0 mm 0.00 in0.0 mm
03:01 AM 27.7°F-2.4°C 23.8°F-4.6°C 85% 2.2 mph W3.5 kmh W 5.3 mph8.5 kmh 30.21 in1023.0 mb 0.00 in0.0 mm 0.00 in0.0 mm 0.00 in0.0 mm
03:00 AM 27.7°F-2.4°C 23.8°F-4.6°C 85% 2.7 mph W4.3 kmh W 5.3 mph8.5 kmh 30.21 in1023.0 mb 0.00 in0.0 mm 0.00 in0.0 mm 0.00 in0.0 mm
02:59 AM 27.7°F-2.4°C 23.8°F-4.6°C 85% 2.7 mph W4.3 kmh W 5.3 mph8.5 kmh 30.21 in1023.0 mb 0.00 in0.0 mm 0.00 in0.0 mm 0.00 in0.0 mm
02:58 AM 27.5°F-2.5°C 23.6°F-4.7°C 85% 3.7 mph W6.0 kmh W 4.2 mph6.8 kmh 30.21 in1023.0 mb 0.00 in0.0 mm 0.00 in0.0 mm 0.00 in0.0 mm
02:57 AM 27.3°F-2.6°C 23.4°F-4.8°C 85% 2.2 mph W3.5 kmh W 4.2 mph6.8 kmh 30.21 in1023.0 mb 0.00 in0.0 mm 0.00 in0.0 mm 0.00 in0.0 mm
02:56 AM 27.3°F-2.6°C 23.4°F-4.8°C 85% 1.7 mph WNW2.7 kmh WNW 4.2 mph6.8 kmh 30.21 in1023.0 mb 0.00 in0.0 mm 0.00 in0.0 mm 0.00 in0.0 mm
02:55 AM 27.3°F-2.6°C 23.4°F-4.8°C 85% 2.7 mph W4.3 kmh W 4.2 mph6.8 kmh 30.21 in1023.0 mb 0.00 in0.0 mm 0.00 in0.0 mm 0.00 in0.0 mm
02:54 AM 27.3°F-2.6°C 23.4°F-4.8°C 85% 2.7 mph SW4.3 kmh SW 4.2 mph6.8 kmh 30.21 in1023.0 mb 0.00 in0.0 mm 0.00 in0.0 mm 0.00 in0.0 mm
02:53 AM 27.3°F-2.6°C 23.4°F-4.8°C 85% 1.7 mph W2.7 kmh W 4.2 mph6.8 kmh 30.21 in1023.0 mb 0.00 in0.0 mm 0.00 in0.0 mm 0.00 in0.0 mm
02:52 AM 27.3°F-2.6°C 23.4°F-4.8°C 85% 1.1 mph WNW1.8 kmh WNW 4.2 mph6.8 kmh 30.21 in1023.0 mb 0.00 in0.0 mm 0.00 in0.0 mm 0.00 in0.0 mm
02:51 AM 27.3°F-2.6°C 23.4°F-4.8°C 85% 4.2 mph WSW6.8 kmh WSW 4.2 mph6.8 kmh 30.21 in1023.0 mb 0.00 in0.0 mm 0.00 in0.0 mm 0.00 in0.0 mm
02:50 AM 27.3°F-2.6°C 23.4°F-4.8°C 85% Calm Calm 4.2 mph6.8 kmh 30.21 in1023.0 mb 0.00 in0.0 mm 0.00 in0.0 mm 0.00 in0.0 mm
02:49 AM 27.3°F-2.6°C 23.4°F-4.8°C 85% 3.2 mph W5.1 kmh W 4.2 mph6.8 kmh 30.21 in1023.0 mb 0.00 in0.0 mm 0.00 in0.0 mm 0.00 in0.0 mm
02:48 AM 27.3°F-2.6°C 23.4°F-4.8°C 85% 3.2 mph W5.1 kmh W 4.2 mph6.8 kmh 30.21 in1023.0 mb 0.00 in0.0 mm 0.00 in0.0 mm 0.00 in0.0 mm
02:47 AM 27.3°F-2.6°C 23.4°F-4.8°C 85% Calm Calm 4.2 mph6.8 kmh 30.21 in1023.0 mb 0.00 in0.0 mm 0.00 in0.0 mm 0.00 in0.0 mm
02:46 AM 27.3°F-2.6°C 23.4°F-4.8°C 85% 3.2 mph SSW5.1 kmh SSW 4.2 mph6.8 kmh 30.21 in1023.0 mb 0.00 in0.0 mm 0.00 in0.0 mm 0.00 in0.0 mm
02:45 AM 27.3°F-2.6°C 23.7°F-4.6°C 86% 1.7 mph W2.7 kmh W 4.2 mph6.8 kmh 30.21 in1023.0 mb 0.00 in0.0 mm 0.00 in0.0 mm 0.00 in0.0 mm
02:44 AM 27.3°F-2.6°C 23.7°F-4.6°C 86% 1.7 mph W2.7 kmh W 3.7 mph6.0 kmh 30.21 in1023.0 mb 0.00 in0.0 mm 0.00 in0.0 mm 0.00 in0.0 mm
02:43 AM 27.3°F-2.6°C 23.7°F-4.6°C 86% 2.7 mph W4.3 kmh W 3.7 mph6.0 kmh 30.21 in1023.0 mb 0.00 in0.0 mm 0.00 in0.0 mm 0.00 in0.0 mm
02:42 AM 27.3°F-2.6°C 23.7°F-4.6°C 86% 3.7 mph W6.0 kmh W 3.7 mph6.0 kmh 30.21 in1023.0 mb 0.00 in0.0 mm 0.00 in0.0 mm 0.00 in0.0 mm
02:41 AM 27.1°F-2.7°C 23.5°F-4.7°C 86% 2.7 mph SW4.3 kmh SW 3.2 mph5.1 kmh 30.21 in1023.0 mb 0.00 in0.0 mm 0.00 in0.0 mm 0.00 in0.0 mm
02:40 AM 27.0°F-2.8°C 23.4°F-4.8°C 86% 2.2 mph WNW3.5 kmh WNW 3.2 mph5.1 kmh 30.21 in1023.0 mb 0.00 in0.0 mm 0.00 in0.0 mm 0.00 in0.0 mm
02:39 AM 27.0°F-2.8°C 23.4°F-4.8°C 86% 2.7 mph W4.3 kmh W 3.2 mph5.1 kmh 30.21 in1023.0 mb 0.00 in0.0 mm 0.00 in0.0 mm 0.00 in0.0 mm
02:38 AM 26.8°F-2.9°C 23.2°F-4.9°C 86% 1.7 mph SW2.7 kmh SW 3.2 mph5.1 kmh 30.21 in1023.0 mb 0.00 in0.0 mm 0.00 in0.0 mm 0.00 in0.0 mm
02:37 AM 26.8°F-2.9°C 23.2°F-4.9°C 86% 1.7 mph W2.7 kmh W 3.2 mph5.1 kmh 30.21 in1023.0 mb 0.00 in0.0 mm 0.00 in0.0 mm 0.00 in0.0 mm
02:36 AM 26.8°F-2.9°C 23.2°F-4.9°C 86% Calm Calm 3.2 mph5.1 kmh 30.21 in1023.0 mb 0.00 in0.0 mm 0.00 in0.0 mm 0.00 in0.0 mm
02:35 AM 27.0°F-2.8°C 23.4°F-4.8°C 86% 1.7 mph W2.7 kmh W 3.2 mph5.1 kmh 30.21 in1023.0 mb 0.00 in0.0 mm 0.00 in0.0 mm 0.00 in0.0 mm
02:34 AM 26.8°F-2.9°C 23.2°F-4.9°C 86% 1.7 mph NW2.7 kmh NW 2.7 mph4.3 kmh 30.21 in1023.0 mb 0.00 in0.0 mm 0.00 in0.0 mm 0.00 in0.0 mm
02:33 AM 26.8°F-2.9°C 23.2°F-4.9°C 86% Calm Calm 2.7 mph4.3 kmh 30.21 in1023.0 mb 0.00 in0.0 mm 0.00 in0.0 mm 0.00 in0.0 mm
02:32 AM 26.8°F-2.9°C 23.2°F-4.9°C 86% 1.1 mph WNW1.8 kmh WNW 2.7 mph4.3 kmh 30.21 in1023.0 mb 0.00 in0.0 mm 0.00 in0.0 mm 0.00 in0.0 mm
02:31 AM 26.8°F-2.9°C 23.2°F-4.9°C 86% 1.7 mph W2.7 kmh W 2.7 mph4.3 kmh 30.21 in1023.0 mb 0.00 in0.0 mm 0.00 in0.0 mm 0.00 in0.0 mm
02:30 AM 26.8°F-2.9°C 23.2°F-4.9°C 86% Calm Calm 2.7 mph4.3 kmh 30.21 in1023.0 mb 0.00 in0.0 mm 0.00 in0.0 mm 0.00 in0.0 mm
02:29 AM 26.8°F-2.9°C 23.2°F-4.9°C 86% 2.2 mph NW3.5 kmh NW 2.7 mph4.3 kmh 30.21 in1023.0 mb 0.00 in0.0 mm 0.00 in0.0 mm 0.00 in0.0 mm
02:28 AM 26.8°F-2.9°C 23.2°F-4.9°C 86% Calm Calm 2.7 mph4.3 kmh 30.21 in1023.0 mb 0.00 in0.0 mm 0.00 in0.0 mm 0.00 in0.0 mm
02:27 AM 26.6°F-3.0°C 23.0°F-5.0°C 86% 2.7 mph W4.3 kmh W 2.7 mph4.3 kmh 30.21 in1023.0 mb 0.00 in0.0 mm 0.00 in0.0 mm 0.00 in0.0 mm
02:26 AM 26.6°F-3.0°C 23.0°F-5.0°C 86% Calm Calm 2.7 mph4.3 kmh 30.21 in1023.0 mb 0.00 in0.0 mm 0.00 in0.0 mm 0.00 in0.0 mm
02:25 AM 26.4°F-3.1°C 22.8°F-5.1°C 86% Calm Calm 2.7 mph4.3 kmh 30.21 in1023.0 mb 0.00 in0.0 mm 0.00 in0.0 mm 0.00 in0.0 mm
02:24 AM 26.2°F-3.2°C 22.6°F-5.2°C 86% Calm Calm 2.7 mph4.3 kmh 30.21 in1023.0 mb 0.00 in0.0 mm 0.00 in0.0 mm 0.00 in0.0 mm
02:23 AM 26.2°F-3.2°C 22.6°F-5.2°C 86% Calm Calm 2.7 mph4.3 kmh 30.21 in1023.0 mb 0.00 in0.0 mm 0.00 in0.0 mm 0.00 in0.0 mm
02:22 AM 26.2°F-3.2°C 22.6°F-5.2°C 86% Calm Calm 2.7 mph4.3 kmh 30.21 in1023.0 mb 0.00 in0.0 mm 0.00 in0.0 mm 0.00 in0.0 mm
02:21 AM 26.2°F-3.2°C 22.6°F-5.2°C 86% Calm Calm 2.7 mph4.3 kmh 30.21 in1023.0 mb 0.00 in0.0 mm 0.00 in0.0 mm 0.00 in0.0 mm
02:20 AM 26.2°F-3.2°C 22.6°F-5.2°C 86% Calm Calm 2.7 mph4.3 kmh 30.21 in1023.0 mb 0.00 in0.0 mm 0.00 in0.0 mm 0.00 in0.0 mm
02:19 AM 26.4°F-3.1°C 22.8°F-5.1°C 86% Calm Calm 2.7 mph4.3 kmh 30.21 in1023.0 mb 0.00 in0.0 mm 0.00 in0.0 mm 0.00 in0.0 mm
02:18 AM 26.4°F-3.1°C 22.8°F-5.1°C 86% 2.7 mph WNW4.3 kmh WNW 2.7 mph4.3 kmh 30.21 in1023.0 mb 0.00 in0.0 mm 0.00 in0.0 mm 0.00 in0.0 mm
02:17 AM 26.6°F-3.0°C 23.0°F-5.0°C 86% 1.1 mph W1.8 kmh W 1.1 mph1.8 kmh 30.21 in1023.0 mb 0.00 in0.0 mm 0.00 in0.0 mm 0.00 in0.0 mm
02:16 AM 26.6°F-3.0°C 23.0°F-5.0°C 86% Calm Calm 1.1 mph1.8 kmh 30.21 in1023.0 mb 0.00 in0.0 mm 0.00 in0.0 mm 0.00 in0.0 mm
02:15 AM 26.6°F-3.0°C 23.0°F-5.0°C 86% Calm Calm 1.1 mph1.8 kmh 30.21 in1023.0 mb 0.00 in0.0 mm 0.00 in0.0 mm 0.00 in0.0 mm
02:14 AM 26.6°F-3.0°C 23.3°F-4.8°C 87% Calm Calm 2.2 mph3.5 kmh 30.21 in1023.0 mb 0.00 in0.0 mm 0.00 in0.0 mm 0.00 in0.0 mm
02:13 AM 26.4°F-3.1°C 23.1°F-4.9°C 87% Calm Calm 2.2 mph3.5 kmh 30.21 in1023.0 mb 0.00 in0.0 mm 0.00 in0.0 mm 0.00 in0.0 mm
02:12 AM 26.4°F-3.1°C 23.1°F-4.9°C 87% Calm Calm 2.2 mph3.5 kmh 30.21 in1023.0 mb 0.00 in0.0 mm 0.00 in0.0 mm 0.00 in0.0 mm
02:11 AM 26.4°F-3.1°C 23.1°F-4.9°C 87% Calm Calm 2.7 mph4.3 kmh 30.21 in1023.0 mb 0.00 in0.0 mm 0.00 in0.0 mm 0.00 in0.0 mm
02:10 AM 26.4°F-3.1°C 23.1°F-4.9°C 87% Calm Calm 2.7 mph4.3 kmh 30.21 in1023.0 mb 0.00 in0.0 mm 0.00 in0.0 mm 0.00 in0.0 mm
02:09 AM 26.4°F-3.1°C 23.1°F-4.9°C 87% Calm Calm 2.7 mph4.3 kmh 30.21 in1023.0 mb 0.00 in0.0 mm 0.00 in0.0 mm 0.00 in0.0 mm
02:08 AM 26.2°F-3.2°C 22.9°F-5.1°C 87% Calm Calm 2.7 mph4.3 kmh 30.21 in1023.0 mb 0.00 in0.0 mm 0.00 in0.0 mm 0.00 in0.0 mm
02:07 AM 26.2°F-3.2°C 22.9°F-5.1°C 87% Calm Calm 2.7 mph4.3 kmh 30.21 in1023.0 mb 0.00 in0.0 mm 0.00 in0.0 mm 0.00 in0.0 mm
02:06 AM 26.1°F-3.3°C 22.8°F-5.1°C 87% Calm Calm 2.7 mph4.3 kmh 30.21 in1023.0 mb 0.00 in0.0 mm 0.00 in0.0 mm 0.00 in0.0 mm
02:05 AM 26.1°F-3.3°C 22.8°F-5.1°C 87% Calm Calm 2.7 mph4.3 kmh 30.21 in1023.0 mb 0.00 in0.0 mm 0.00 in0.0 mm 0.00 in0.0 mm
02:04 AM 25.9°F-3.4°C 22.6°F-5.2°C 87% 1.1 mph W1.8 kmh W 2.7 mph4.3 kmh 30.21 in1023.0 mb 0.00 in0.0 mm 0.00 in0.0 mm 0.00 in0.0 mm
02:03 AM 25.9°F-3.4°C 22.6°F-5.2°C 87% 1.1 mph SSW1.8 kmh SSW 2.7 mph4.3 kmh 30.21 in1023.0 mb 0.00 in0.0 mm 0.00 in0.0 mm 0.00 in0.0 mm
02:02 AM 25.7°F-3.5°C 22.4°F-5.3°C 87% 1.7 mph W2.7 kmh W 2.7 mph4.3 kmh 30.21 in1023.0 mb 0.00 in0.0 mm 0.00 in0.0 mm 0.00 in0.0 mm
02:01 AM 25.5°F-3.6°C 22.2°F-5.4°C 87% Calm Calm -- 30.21 in1023.0 mb 0.00 in0.0 mm 0.00 in0.0 mm 0.00 in0.0 mm
02:00 AM 25.5°F-3.6°C 21.9°F-5.6°C 86% Calm Calm -- 30.22 in1023.4 mb 0.00 in0.0 mm 0.00 in0.0 mm 0.00 in0.0 mm
01:59 AM 25.5°F-3.6°C 21.9°F-5.6°C 86% Calm Calm -- 30.22 in1023.4 mb 0.00 in0.0 mm 0.00 in0.0 mm 0.00 in0.0 mm
01:58 AM 25.5°F-3.6°C 21.9°F-5.6°C 86% Calm Calm -- 30.22 in1023.4 mb 0.00 in0.0 mm 0.00 in0.0 mm 0.00 in0.0 mm
01:57 AM 25.5°F-3.6°C 21.9°F-5.6°C 86% Calm Calm -- 30.22 in1023.4 mb 0.00 in0.0 mm 0.00 in0.0 mm 0.00 in0.0 mm
01:56 AM 25.5°F-3.6°C 21.9°F-5.6°C 86% Calm Calm -- 30.22 in1023.4 mb 0.00 in0.0 mm 0.00 in0.0 mm 0.00 in0.0 mm
01:55 AM 25.7°F-3.5°C 22.1°F-5.5°C 86% Calm Calm -- 30.22 in1023.4 mb 0.00 in0.0 mm 0.00 in0.0 mm 0.00 in0.0 mm
01:54 AM 25.9°F-3.4°C 22.3°F-5.4°C 86% Calm Calm -- 30.22 in1023.4 mb 0.00 in0.0 mm 0.00 in0.0 mm 0.00 in0.0 mm
01:53 AM 25.9°F-3.4°C 22.3°F-5.4°C 86% Calm Calm -- 30.22 in1023.4 mb 0.00 in0.0 mm 0.00 in0.0 mm 0.00 in0.0 mm
01:52 AM 26.1°F-3.3°C 22.5°F-5.3°C 86% Calm Calm -- 30.22 in1023.4 mb 0.00 in0.0 mm 0.00 in0.0 mm 0.00 in0.0 mm
01:51 AM 26.1°F-3.3°C 22.5°F-5.3°C 86% Calm Calm -- 30.22 in1023.4 mb 0.00 in0.0 mm 0.00 in0.0 mm 0.00 in0.0 mm
01:50 AM 26.2°F-3.2°C 22.6°F-5.2°C 86% Calm Calm -- 30.22 in1023.4 mb 0.00 in0.0 mm 0.00 in0.0 mm 0.00 in0.0 mm
01:49 AM 26.2°F-3.2°C 22.6°F-5.2°C 86% Calm Calm -- 30.22 in1023.4 mb 0.00 in0.0 mm 0.00 in0.0 mm 0.00 in0.0 mm
01:48 AM 26.2°F-3.2°C 22.6°F-5.2°C 86% Calm Calm -- 30.22 in1023.4 mb 0.00 in0.0 mm 0.00 in0.0 mm 0.00 in0.0 mm
01:47 AM 26.2°F-3.2°C 22.3°F-5.4°C 85% Calm Calm -- 30.22 in1023.4 mb 0.00 in0.0 mm 0.00 in0.0 mm 0.00 in0.0 mm
01:46 AM 26.2°F-3.2°C 22.3°F-5.4°C 85% Calm Calm -- 30.22 in1023.4 mb 0.00 in0.0 mm 0.00 in0.0 mm 0.00 in0.0 mm
01:45 AM 26.4°F-3.1°C 22.5°F-5.3°C 85% Calm Calm -- 30.22 in1023.4 mb 0.00 in0.0 mm 0.00 in0.0 mm 0.00 in0.0 mm
01:44 AM 26.4°F-3.1°C 22.5°F-5.3°C 85% Calm Calm -- 30.22 in1023.4 mb 0.00 in0.0 mm 0.00 in0.0 mm 0.00 in0.0 mm
01:43 AM 26.4°F-3.1°C 22.5°F-5.3°C 85% Calm Calm -- 30.22 in1023.4 mb 0.00 in0.0 mm 0.00 in0.0 mm 0.00 in0.0 mm
01:42 AM 26.4°F-3.1°C 22.5°F-5.3°C 85% Calm Calm -- 30.22 in1023.4 mb 0.00 in0.0 mm 0.00 in0.0 mm 0.00 in0.0 mm
01:41 AM 26.6°F-3.0°C 22.7°F-5.2°C 85% Calm Calm -- 30.22 in1023.4 mb 0.00 in0.0 mm 0.00 in0.0 mm 0.00 in0.0 mm
01:40 AM 26.8°F-2.9°C 22.9°F-5.1°C 85% Calm Calm -- 30.22 in1023.4 mb 0.00 in0.0 mm 0.00 in0.0 mm 0.00 in0.0 mm
01:39 AM 26.8°F-2.9°C 22.9°F-5.1°C 85% Calm Calm -- 30.22 in1023.4 mb 0.00 in0.0 mm 0.00 in0.0 mm 0.00 in0.0 mm
01:38 AM 27.0°F-2.8°C 23.1°F-4.9°C 85% Calm Calm -- 30.22 in1023.4 mb 0.00 in0.0 mm 0.00 in0.0 mm 0.00 in0.0 mm
01:37 AM 27.0°F-2.8°C 23.1°F-4.9°C 85% Calm Calm -- 30.22 in1023.4 mb 0.00 in0.0 mm 0.00 in0.0 mm 0.00 in0.0 mm
01:36 AM 27.0°F-2.8°C 23.1°F-4.9°C 85% Calm Calm -- 30.22 in1023.4 mb 0.00 in0.0 mm 0.00 in0.0 mm 0.00 in0.0 mm
01:35 AM 27.1°F-2.7°C 23.2°F-4.9°C 85% Calm Calm -- 30.22 in1023.4 mb 0.00 in0.0 mm 0.00 in0.0 mm 0.00 in0.0 mm
01:34 AM 27.3°F-2.6°C 23.4°F-4.8°C 85% Calm Calm -- 30.22 in1023.4 mb 0.00 in0.0 mm 0.00 in0.0 mm 0.00 in0.0 mm
01:33 AM 27.5°F-2.5°C 23.6°F-4.7°C 85% Calm Calm -- 30.22 in1023.4 mb 0.00 in0.0 mm 0.00 in0.0 mm 0.00 in0.0 mm
01:32 AM 27.5°F-2.5°C 23.6°F-4.7°C 85% Calm Calm -- 30.22 in1023.4 mb 0.00 in0.0 mm 0.00 in0.0 mm 0.00 in0.0 mm
01:31 AM 27.5°F-2.5°C 23.6°F-4.7°C 85% Calm Calm -- 30.22 in1023.4 mb 0.00 in0.0 mm 0.00 in0.0 mm 0.00 in0.0 mm
01:30 AM 27.5°F-2.5°C 23.6°F-4.7°C 85% Calm Calm 2.2 mph3.5 kmh 30.22 in1023.4 mb 0.00 in0.0 mm 0.00 in0.0 mm 0.00 in0.0 mm
01:29 AM 27.5°F-2.5°C 23.6°F-4.7°C 85% Calm Calm 2.2 mph3.5 kmh 30.22 in1023.4 mb 0.00 in0.0 mm 0.00 in0.0 mm 0.00 in0.0 mm
01:28 AM 27.7°F-2.4°C 23.5°F-4.7°C 84% Calm Calm 2.2 mph3.5 kmh 30.22 in1023.4 mb 0.00 in0.0 mm 0.00 in0.0 mm 0.00 in0.0 mm
01:27 AM 27.7°F-2.4°C 23.5°F-4.7°C 84% Calm Calm 2.2 mph3.5 kmh 30.22 in1023.4 mb 0.00 in0.0 mm 0.00 in0.0 mm 0.00 in0.0 mm
01:26 AM 27.7°F-2.4°C 23.5°F-4.7°C 84% Calm Calm 2.2 mph3.5 kmh 30.22 in1023.4 mb 0.00 in0.0 mm 0.00 in0.0 mm 0.00 in0.0 mm
01:25 AM 27.9°F-2.3°C 23.7°F-4.6°C 84% Calm Calm 2.7 mph4.3 kmh 30.22 in1023.4 mb 0.00 in0.0 mm 0.00 in0.0 mm 0.00 in0.0 mm
01:24 AM 28.0°F-2.2°C 23.8°F-4.6°C 84% Calm Calm 2.7 mph4.3 kmh 30.22 in1023.4 mb 0.00 in0.0 mm 0.00 in0.0 mm 0.00 in0.0 mm
01:23 AM 28.0°F-2.2°C 23.8°F-4.6°C 84% Calm Calm 2.7 mph4.3 kmh 30.22 in1023.4 mb 0.00 in0.0 mm 0.00 in0.0 mm 0.00 in0.0 mm
01:22 AM 28.2°F-2.1°C 24.0°F-4.4°C 84% Calm Calm 2.7 mph4.3 kmh 30.22 in1023.4 mb 0.00 in0.0 mm 0.00 in0.0 mm 0.00 in0.0 mm
01:21 AM 28.2°F-2.1°C 24.0°F-4.4°C 84% Calm Calm 2.7 mph4.3 kmh 30.22 in1023.4 mb 0.00 in0.0 mm 0.00 in0.0 mm 0.00 in0.0 mm
01:20 AM 28.2°F-2.1°C 24.0°F-4.4°C 84% 1.7 mph W2.7 kmh W 2.7 mph4.3 kmh 30.22 in1023.4 mb 0.00 in0.0 mm 0.00 in0.0 mm 0.00 in0.0 mm
01:19 AM 28.2°F-2.1°C 24.0°F-4.4°C 84% Calm Calm 2.7 mph4.3 kmh 30.22 in1023.4 mb 0.00 in0.0 mm 0.00 in0.0 mm 0.00 in0.0 mm
01:18 AM 28.2°F-2.1°C 24.0°F-4.4°C 84% Calm Calm 2.7 mph4.3 kmh 30.22 in1023.4 mb 0.00 in0.0 mm 0.00 in0.0 mm 0.00 in0.0 mm
01:17 AM 28.2°F-2.1°C 24.0°F-4.4°C 84% Calm Calm 2.7 mph4.3 kmh 30.22 in1023.4 mb 0.00 in0.0 mm 0.00 in0.0 mm 0.00 in0.0 mm
01:16 AM 28.2°F-2.1°C 24.0°F-4.4°C 84% 2.7 mph W4.3 kmh W 3.7 mph6.0 kmh 30.22 in1023.4 mb 0.00 in0.0 mm 0.00 in0.0 mm 0.00 in0.0 mm
01:15 AM 28.4°F-2.0°C 24.2°F-4.3°C 84% 1.7 mph WNW2.7 kmh WNW 4.2 mph6.8 kmh 30.22 in1023.4 mb 0.00 in0.0 mm 0.00 in0.0 mm 0.00 in0.0 mm
01:14 AM 28.4°F-2.0°C 24.2°F-4.3°C 84% 2.7 mph W4.3 kmh W 4.2 mph6.8 kmh 30.22 in1023.4 mb 0.00 in0.0 mm 0.00 in0.0 mm 0.00 in0.0 mm
01:13 AM 28.4°F-2.0°C 24.2°F-4.3°C 84% 1.1 mph W1.8 kmh W 4.2 mph6.8 kmh 30.23 in1023.7 mb 0.00 in0.0 mm 0.00 in0.0 mm 0.00 in0.0 mm
01:12 AM 28.6°F-1.9°C 24.4°F-4.2°C 84% 1.7 mph W2.7 kmh W 4.2 mph6.8 kmh 30.23 in1023.7 mb 0.00 in0.0 mm 0.00 in0.0 mm 0.00 in0.0 mm
01:11 AM 28.8°F-1.8°C 24.6°F-4.1°C 84% Calm Calm 4.2 mph6.8 kmh 30.23 in1023.7 mb 0.00 in0.0 mm 0.00 in0.0 mm 0.00 in0.0 mm
01:10 AM 28.8°F-1.8°C 24.6°F-4.1°C 84% 2.7 mph W4.3 kmh W 4.2 mph6.8 kmh 30.23 in1023.7 mb 0.00 in0.0 mm 0.00 in0.0 mm 0.00 in0.0 mm
01:09 AM 28.8°F-1.8°C 24.6°F-4.1°C 84% Calm Calm 4.2 mph6.8 kmh 30.23 in1023.7 mb 0.00 in0.0 mm 0.00 in0.0 mm 0.00 in0.0 mm
01:08 AM 28.8°F-1.8°C 24.6°F-4.1°C 84% 1.1 mph SW1.8 kmh SW 4.2 mph6.8 kmh 30.23 in1023.7 mb 0.00 in0.0 mm 0.00 in0.0 mm 0.00 in0.0 mm
01:07 AM 28.8°F-1.8°C 24.6°F-4.1°C 84% 1.1 mph WSW1.8 kmh WSW 4.2 mph6.8 kmh 30.23 in1023.7 mb 0.00 in0.0 mm 0.00 in0.0 mm 0.00 in0.0 mm
01:06 AM 28.8°F-1.8°C 24.6°F-4.1°C 84% 3.7 mph W6.0 kmh W 4.2 mph6.8 kmh 30.23 in1023.7 mb 0.00 in0.0 mm 0.00 in0.0 mm 0.00 in0.0 mm
01:05 AM 28.8°F-1.8°C 24.6°F-4.1°C 84% Calm Calm 5.3 mph8.5 kmh 30.23 in1023.7 mb 0.00 in0.0 mm 0.00 in0.0 mm 0.00 in0.0 mm
01:04 AM 28.8°F-1.8°C 24.6°F-4.1°C 84% 3.7 mph W6.0 kmh W 5.3 mph8.5 kmh 30.23 in1023.7 mb 0.00 in0.0 mm 0.00 in0.0 mm 0.00 in0.0 mm
01:03 AM 28.8°F-1.8°C 24.6°F-4.1°C 84% 2.2 mph W3.5 kmh W 5.3 mph8.5 kmh 30.23 in1023.7 mb 0.00 in0.0 mm 0.00 in0.0 mm 0.00 in0.0 mm
01:02 AM 28.8°F-1.8°C 24.6°F-4.1°C 84% 2.2 mph NNW3.5 kmh NNW 5.3 mph8.5 kmh 30.23 in1023.7 mb 0.00 in0.0 mm 0.00 in0.0 mm 0.00 in0.0 mm
01:01 AM 28.8°F-1.8°C 24.6°F-4.1°C 84% 3.7 mph WSW6.0 kmh WSW 5.3 mph8.5 kmh 30.23 in1023.7 mb 0.00 in0.0 mm 0.00 in0.0 mm 0.00 in0.0 mm
01:00 AM 28.8°F-1.8°C 24.6°F-4.1°C 84% 1.7 mph WSW2.7 kmh WSW 5.3 mph8.5 kmh 30.24 in1024.0 mb 0.00 in0.0 mm 0.00 in0.0 mm 0.00 in0.0 mm
12:59 AM 28.8°F-1.8°C 24.6°F-4.1°C 84% 2.2 mph WSW3.5 kmh WSW 5.3 mph8.5 kmh 30.24 in1024.0 mb 0.00 in0.0 mm 0.00 in0.0 mm 0.00 in0.0 mm
12:58 AM 28.8°F-1.8°C 24.6°F-4.1°C 84% 1.7 mph W2.7 kmh W 5.3 mph8.5 kmh 30.24 in1024.0 mb 0.00 in0.0 mm 0.00 in0.0 mm 0.00 in0.0 mm
12:57 AM 28.8°F-1.8°C 24.6°F-4.1°C 84% Calm Calm 5.3 mph8.5 kmh 30.24 in1024.0 mb 0.00 in0.0 mm 0.00 in0.0 mm 0.00 in0.0 mm
12:56 AM 28.8°F-1.8°C 24.6°F-4.1°C 84% 2.2 mph W3.5 kmh W 5.3 mph8.5 kmh 30.24 in1024.0 mb 0.00 in0.0 mm 0.00 in0.0 mm 0.00 in0.0 mm
12:55 AM 28.8°F-1.8°C 24.6°F-4.1°C 84% 5.3 mph SW8.5 kmh SW 5.3 mph8.5 kmh 30.24 in1024.0 mb 0.00 in0.0 mm 0.00 in0.0 mm 0.00 in0.0 mm
12:54 AM 28.8°F-1.8°C 24.6°F-4.1°C 84% 3.2 mph WSW5.1 kmh WSW 3.2 mph5.1 kmh 30.24 in1024.0 mb 0.00 in0.0 mm 0.00 in0.0 mm 0.00 in0.0 mm
12:53 AM 28.8°F-1.8°C 24.6°F-4.1°C 84% 1.1 mph W1.8 kmh W 3.2 mph5.1 kmh 30.24 in1024.0 mb 0.00 in0.0 mm 0.00 in0.0 mm 0.00 in0.0 mm
12:52 AM 28.8°F-1.8°C 24.6°F-4.1°C 84% 3.2 mph S5.1 kmh S 3.2 mph5.1 kmh 30.24 in1024.0 mb 0.00 in0.0 mm 0.00 in0.0 mm 0.00 in0.0 mm
12:51 AM 28.8°F-1.8°C 24.6°F-4.1°C 84% 1.7 mph SW2.7 kmh SW 3.2 mph5.1 kmh 30.24 in1024.0 mb 0.00 in0.0 mm 0.00 in0.0 mm 0.00 in0.0 mm
12:50 AM 28.8°F-1.8°C 24.6°F-4.1°C 84% 1.7 mph SW2.7 kmh SW 3.2 mph5.1 kmh 30.24 in1024.0 mb 0.00 in0.0 mm 0.00 in0.0 mm 0.00 in0.0 mm
12:49 AM 28.9°F-1.7°C 24.7°F-4.1°C 84% 1.1 mph WNW1.8 kmh WNW 3.2 mph5.1 kmh 30.24 in1024.0 mb 0.00 in0.0 mm 0.00 in0.0 mm 0.00 in0.0 mm
12:48 AM 28.9°F-1.7°C 24.7°F-4.1°C 84% 1.7 mph W2.7 kmh W 3.2 mph5.1 kmh 30.24 in1024.0 mb 0.00 in0.0 mm 0.00 in0.0 mm 0.00 in0.0 mm
12:47 AM 28.9°F-1.7°C 24.7°F-4.1°C 84% 1.1 mph W1.8 kmh W 3.2 mph5.1 kmh 30.24 in1024.0 mb 0.00 in0.0 mm 0.00 in0.0 mm 0.00 in0.0 mm
12:46 AM 28.9°F-1.7°C 24.7°F-4.1°C 84% 1.1 mph NNW1.8 kmh NNW 3.2 mph5.1 kmh 30.24 in1024.0 mb 0.00 in0.0 mm 0.00 in0.0 mm 0.00 in0.0 mm
12:45 AM 28.9°F-1.7°C 24.7°F-4.1°C 84% 1.7 mph SW2.7 kmh SW 3.2 mph5.1 kmh 30.24 in1024.0 mb 0.00 in0.0 mm 0.00 in0.0 mm 0.00 in0.0 mm
12:44 AM 28.9°F-1.7°C 24.7°F-4.1°C 84% 2.7 mph WSW4.3 kmh WSW 3.2 mph5.1 kmh 30.24 in1024.0 mb 0.00 in0.0 mm 0.00 in0.0 mm 0.00 in0.0 mm
12:43 AM 28.9°F-1.7°C 24.7°F-4.1°C 84% Calm Calm 3.2 mph5.1 kmh 30.24 in1024.0 mb 0.00 in0.0 mm 0.00 in0.0 mm 0.00 in0.0 mm
12:42 AM 29.1°F-1.6°C 24.9°F-3.9°C 84% 2.2 mph W3.5 kmh W 3.2 mph5.1 kmh 30.24 in1024.0 mb 0.00 in0.0 mm 0.00 in0.0 mm 0.00 in0.0 mm
12:41 AM 29.1°F-1.6°C 24.9°F-3.9°C 84% Calm Calm 3.2 mph5.1 kmh 30.24 in1024.0 mb 0.00 in0.0 mm 0.00 in0.0 mm 0.00 in0.0 mm
12:40 AM 29.1°F-1.6°C 24.9°F-3.9°C 84% Calm Calm 4.7 mph7.6 kmh 30.24 in1024.0 mb 0.00 in0.0 mm 0.00 in0.0 mm 0.00 in0.0 mm
12:39 AM 29.1°F-1.6°C 24.9°F-3.9°C 84% Calm Calm 6.8 mph10.9 kmh 30.24 in1024.0 mb 0.00 in0.0 mm 0.00 in0.0 mm 0.00 in0.0 mm
12:38 AM 29.1°F-1.6°C 24.9°F-3.9°C 84% 3.2 mph NNW5.1 kmh NNW 6.8 mph10.9 kmh 30.24 in1024.0 mb 0.00 in0.0 mm 0.00 in0.0 mm 0.00 in0.0 mm
12:37 AM 29.1°F-1.6°C 24.9°F-3.9°C 84% Calm Calm 6.8 mph10.9 kmh 30.24 in1024.0 mb 0.00 in0.0 mm 0.00 in0.0 mm 0.00 in0.0 mm
12:36 AM 29.1°F-1.6°C 24.9°F-3.9°C 84% 2.7 mph W4.3 kmh W 6.8 mph10.9 kmh 30.24 in1024.0 mb 0.00 in0.0 mm 0.00 in0.0 mm 0.00 in0.0 mm
12:35 AM 29.1°F-1.6°C 24.9°F-3.9°C 84% 2.2 mph W3.5 kmh W 6.8 mph10.9 kmh 30.24 in1024.0 mb 0.00 in0.0 mm 0.00 in0.0 mm 0.00 in0.0 mm
12:34 AM 29.1°F-1.6°C 24.9°F-3.9°C 84% 2.7 mph SSW4.3 kmh SSW 6.8 mph10.9 kmh 30.24 in1024.0 mb 0.00 in0.0 mm 0.00 in0.0 mm 0.00 in0.0 mm
12:33 AM 29.1°F-1.6°C 24.9°F-3.9°C 84% 2.7 mph W4.3 kmh W 6.8 mph10.9 kmh 30.24 in1024.0 mb 0.00 in0.0 mm 0.00 in0.0 mm 0.00 in0.0 mm
12:32 AM 29.1°F-1.6°C 24.9°F-3.9°C 84% 2.7 mph WSW4.3 kmh WSW 6.8 mph10.9 kmh 30.24 in1024.0 mb 0.00 in0.0 mm 0.00 in0.0 mm 0.00 in0.0 mm
12:31 AM 29.1°F-1.6°C 24.9°F-3.9°C 84% 2.7 mph W4.3 kmh W 6.8 mph10.9 kmh 30.24 in1024.0 mb 0.00 in0.0 mm 0.00 in0.0 mm 0.00 in0.0 mm
12:30 AM 28.9°F-1.7°C 24.7°F-4.1°C 84% 6.8 mph W10.9 kmh W 6.8 mph10.9 kmh 30.24 in1024.0 mb 0.00 in0.0 mm 0.00 in0.0 mm 0.00 in0.0 mm
12:29 AM 28.9°F-1.7°C 24.7°F-4.1°C 84% 4.2 mph WNW6.8 kmh WNW 5.3 mph8.5 kmh 30.24 in1024.0 mb 0.00 in0.0 mm 0.00 in0.0 mm 0.00 in0.0 mm
12:28 AM 28.8°F-1.8°C 24.6°F-4.1°C 84% 2.7 mph SW4.3 kmh SW 5.3 mph8.5 kmh 30.24 in1024.0 mb 0.00 in0.0 mm 0.00 in0.0 mm 0.00 in0.0 mm
12:27 AM 28.8°F-1.8°C 24.6°F-4.1°C 84% 4.2 mph W6.8 kmh W 5.3 mph8.5 kmh 30.24 in1024.0 mb 0.00 in0.0 mm 0.00 in0.0 mm 0.00 in0.0 mm
12:26 AM 28.8°F-1.8°C 24.6°F-4.1°C 84% 4.2 mph W6.8 kmh W 5.3 mph8.5 kmh 30.24 in1024.0 mb 0.00 in0.0 mm 0.00 in0.0 mm 0.00 in0.0 mm
12:25 AM 28.6°F-1.9°C 24.4°F-4.2°C 84% 3.2 mph WSW5.1 kmh WSW 5.3 mph8.5 kmh 30.24 in1024.0 mb 0.00 in0.0 mm 0.00 in0.0 mm 0.00 in0.0 mm
12:24 AM 28.6°F-1.9°C 24.4°F-4.2°C 84% 3.7 mph W6.0 kmh W 5.3 mph8.5 kmh 30.25 in1024.4 mb 0.00 in0.0 mm 0.00 in0.0 mm 0.00 in0.0 mm
12:23 AM 28.6°F-1.9°C 24.4°F-4.2°C 84% 5.3 mph W8.5 kmh W 5.3 mph8.5 kmh 30.25 in1024.4 mb 0.00 in0.0 mm 0.00 in0.0 mm 0.00 in0.0 mm
12:22 AM 28.4°F-2.0°C 24.2°F-4.3°C 84% 4.2 mph W6.8 kmh W 5.3 mph8.5 kmh 30.25 in1024.4 mb 0.00 in0.0 mm 0.00 in0.0 mm 0.00 in0.0 mm
12:21 AM 28.2°F-2.1°C 24.0°F-4.4°C 84% 4.2 mph W6.8 kmh W 4.7 mph7.6 kmh 30.25 in1024.4 mb 0.00 in0.0 mm 0.00 in0.0 mm 0.00 in0.0 mm
12:20 AM 28.0°F-2.2°C 23.8°F-4.6°C 84% 3.2 mph SW5.1 kmh SW 4.7 mph7.6 kmh 30.25 in1024.4 mb 0.00 in0.0 mm 0.00 in0.0 mm 0.00 in0.0 mm
12:19 AM 28.0°F-2.2°C 23.8°F-4.6°C 84% 4.7 mph WSW7.6 kmh WSW 4.7 mph7.6 kmh 30.25 in1024.4 mb 0.00 in0.0 mm 0.00 in0.0 mm 0.00 in0.0 mm
12:18 AM 28.0°F-2.2°C 23.8°F-4.6°C 84% 2.7 mph WSW4.3 kmh WSW 4.7 mph7.6 kmh 30.25 in1024.4 mb 0.00 in0.0 mm 0.00 in0.0 mm 0.00 in0.0 mm
12:17 AM 28.0°F-2.2°C 23.8°F-4.6°C 84% 3.7 mph WNW6.0 kmh WNW 4.7 mph7.6 kmh 30.25 in1024.4 mb 0.00 in0.0 mm 0.00 in0.0 mm 0.00 in0.0 mm
12:16 AM 27.9°F-2.3°C 23.7°F-4.6°C 84% 3.7 mph WNW6.0 kmh WNW 4.7 mph7.6 kmh 30.25 in1024.4 mb 0.00 in0.0 mm 0.00 in0.0 mm 0.00 in0.0 mm
12:15 AM 27.7°F-2.4°C 23.5°F-4.7°C 84% 2.7 mph W4.3 kmh W 4.7 mph7.6 kmh 30.25 in1024.4 mb 0.00 in0.0 mm 0.00 in0.0 mm 0.00 in0.0 mm
12:14 AM 27.7°F-2.4°C 23.5°F-4.7°C 84% 2.2 mph W3.5 kmh W 4.7 mph7.6 kmh 30.25 in1024.4 mb 0.00 in0.0 mm 0.00 in0.0 mm 0.00 in0.0 mm
12:13 AM 27.7°F-2.4°C 23.5°F-4.7°C 84% 4.7 mph W7.6 kmh W 4.7 mph7.6 kmh 30.25 in1024.4 mb 0.00 in0.0 mm 0.00 in0.0 mm 0.00 in0.0 mm
12:12 AM 27.7°F-2.4°C 23.5°F-4.7°C 84% 2.2 mph SW3.5 kmh SW 3.7 mph6.0 kmh 30.25 in1024.4 mb 0.00 in0.0 mm 0.00 in0.0 mm 0.00 in0.0 mm
12:11 AM 27.7°F-2.4°C 23.5°F-4.7°C 84% 1.1 mph NW1.8 kmh NW 3.7 mph6.0 kmh 30.25 in1024.4 mb 0.00 in0.0 mm 0.00 in0.0 mm 0.00 in0.0 mm
12:10 AM 27.7°F-2.4°C 23.5°F-4.7°C 84% 3.2 mph W5.1 kmh W 3.7 mph6.0 kmh 30.25 in1024.4 mb 0.00 in0.0 mm 0.00 in0.0 mm 0.00 in0.0 mm
12:09 AM 27.7°F-2.4°C 23.5°F-4.7°C 84% 2.2 mph W3.5 kmh W 3.2 mph5.1 kmh 30.25 in1024.4 mb 0.00 in0.0 mm 0.00 in0.0 mm 0.00 in0.0 mm
12:08 AM 27.7°F-2.4°C 23.5°F-4.7°C 84% 1.7 mph WNW2.7 kmh WNW 3.2 mph5.1 kmh 30.25 in1024.4 mb 0.00 in0.0 mm 0.00 in0.0 mm 0.00 in0.0 mm
12:07 AM 27.7°F-2.4°C 23.5°F-4.7°C 84% 1.7 mph NW2.7 kmh NW 3.2 mph5.1 kmh 30.25 in1024.4 mb 0.00 in0.0 mm 0.00 in0.0 mm 0.00 in0.0 mm
12:06 AM 27.7°F-2.4°C 23.5°F-4.7°C 84% 2.7 mph W4.3 kmh W 3.2 mph5.1 kmh 30.25 in1024.4 mb 0.00 in0.0 mm 0.00 in0.0 mm 0.00 in0.0 mm
12:05 AM 27.7°F-2.4°C 23.5°F-4.7°C 84% 2.2 mph W3.5 kmh W 3.2 mph5.1 kmh 30.25 in1024.4 mb 0.00 in0.0 mm 0.00 in0.0 mm 0.00 in0.0 mm
12:04 AM 27.7°F-2.4°C 23.5°F-4.7°C 84% 1.1 mph WNW1.8 kmh WNW 3.2 mph5.1 kmh 30.25 in1024.4 mb 0.00 in0.0 mm 0.00 in0.0 mm 0.00 in0.0 mm
12:03 AM 27.7°F-2.4°C 23.5°F-4.7°C 84% 2.2 mph W3.5 kmh W 3.2 mph5.1 kmh 30.25 in1024.4 mb 0.00 in0.0 mm 0.00 in0.0 mm 0.00 in0.0 mm
12:02 AM 27.7°F-2.4°C 23.5°F-4.7°C 84% Calm Calm 3.2 mph5.1 kmh 30.25 in1024.4 mb 0.00 in0.0 mm 0.00 in0.0 mm 0.00 in0.0 mm
12:01 AM 27.7°F-2.4°C 23.5°F-4.7°C 84% 1.1 mph W1.8 kmh W 3.2 mph5.1 kmh 30.25 in1024.4 mb 0.00 in0.0 mm 0.00 in0.0 mm 0.00 in0.0 mm
12:00 AM 27.7°F-2.4°C 23.5°F-4.7°C 84% 2.2 mph W3.5 kmh W 3.2 mph5.1 kmh 30.25 in1024.4 mb 0.00 in0.0 mm 0.00 in0.0 mm 0.00 in0.0 mm